<?xml version='1.0' encoding='UTF-8'?><gpx version="1.1" creator="JPX - https://github.com/jenetics/jpx" xmlns="http://www.topografix.com/GPX/1/1"><trk><trkseg><trkpt lat="42.4208874" lon="13.3753423"><ele>978.0</ele><time>2026-04-09T11:05:18.427Z</time></trkpt><trkpt lat="42.4207998" lon="13.3753435"><ele>978.0</ele><time>2026-04-09T11:05:19.426Z</time></trkpt><trkpt lat="42.4207117" lon="13.3753616"><ele>978.0</ele><time>2026-04-09T11:05:20.427Z</time></trkpt><trkpt lat="42.4206185" lon="13.3753816"><ele>978.0</ele><time>2026-04-09T11:05:21.426Z</time></trkpt><trkpt lat="42.4205168" lon="13.3754314"><ele>978.0</ele><time>2026-04-09T11:05:22.427Z</time></trkpt><trkpt lat="42.4204224" lon="13.3754941"><ele>980.5</ele><time>2026-04-09T11:05:23.427Z</time></trkpt><trkpt lat="42.4203348" lon="13.3755589"><ele>983.0</ele><time>2026-04-09T11:05:24.427Z</time></trkpt><trkpt lat="42.4202519" lon="13.3756129"><ele>985.5</ele><time>2026-04-09T11:05:25.427Z</time></trkpt><trkpt lat="42.4201852" lon="13.3756498"><ele>988.0</ele><time>2026-04-09T11:05:26.427Z</time></trkpt><trkpt lat="42.4201033" lon="13.375674"><ele>990.5</ele><time>2026-04-09T11:05:55.428Z</time></trkpt><trkpt lat="42.4200271" lon="13.3757042"><ele>993.0</ele><time>2026-04-09T11:05:58.426Z</time></trkpt><trkpt lat="42.419911" lon="13.3757322"><ele>993.0</ele><time>2026-04-09T11:06:00.427Z</time></trkpt><trkpt lat="42.4198378" lon="13.3757437"><ele>993.0</ele><time>2026-04-09T11:06:01.427Z</time></trkpt><trkpt lat="42.4197678" lon="13.3757605"><ele>993.0</ele><time>2026-04-09T11:06:02.427Z</time></trkpt><trkpt lat="42.4197008" lon="13.37579"><ele>993.0</ele><time>2026-04-09T11:06:03.426Z</time></trkpt><trkpt lat="42.4196367" lon="13.3758197"><ele>993.0</ele><time>2026-04-09T11:06:04.426Z</time></trkpt><trkpt lat="42.4195754" lon="13.3758533"><ele>993.0</ele><time>2026-04-09T11:06:05.426Z</time></trkpt><trkpt lat="42.4195168" lon="13.3758931"><ele>993.0</ele><time>2026-04-09T11:06:06.427Z</time></trkpt><trkpt lat="42.4194168" lon="13.37599"><ele>988.5</ele><time>2026-04-09T11:06:08.426Z</time></trkpt><trkpt lat="42.4193402" lon="13.3760826"><ele>984.0</ele><time>2026-04-09T11:06:10.427Z</time></trkpt><trkpt lat="42.4192728" lon="13.3761022"><ele>979.5</ele><time>2026-04-09T11:06:12.427Z</time></trkpt><trkpt lat="42.4192465" lon="13.3760082"><ele>975.0</ele><time>2026-04-09T11:06:15.426Z</time></trkpt><trkpt lat="42.4192998" lon="13.3759012"><ele>970.5</ele><time>2026-04-09T11:06:17.426Z</time></trkpt><trkpt lat="42.4193455" lon="13.3758257"><ele>966.0</ele><time>2026-04-09T11:06:18.428Z</time></trkpt><trkpt lat="42.4194016" lon="13.3757439"><ele>966.0</ele><time>2026-04-09T11:06:19.427Z</time></trkpt><trkpt lat="42.4194615" lon="13.37567"><ele>966.0</ele><time>2026-04-09T11:06:20.428Z</time></trkpt><trkpt lat="42.4195226" lon="13.375604"><ele>966.0</ele><time>2026-04-09T11:06:21.427Z</time></trkpt><trkpt lat="42.419582" lon="13.3755436"><ele>966.0</ele><time>2026-04-09T11:06:22.427Z</time></trkpt><trkpt lat="42.4196488" lon="13.3754831"><ele>966.0</ele><time>2026-04-09T11:06:23.426Z</time></trkpt><trkpt lat="42.4197227" lon="13.3754284"><ele>966.0</ele><time>2026-04-09T11:06:24.426Z</time></trkpt><trkpt lat="42.4197922" lon="13.3753884"><ele>965.1428571428571</ele><time>2026-04-09T11:06:25.427Z</time></trkpt><trkpt lat="42.4198533" lon="13.375349"><ele>964.2857142857142</ele><time>2026-04-09T11:06:26.426Z</time></trkpt><trkpt lat="42.4199103" lon="13.3752966"><ele>963.4285714285714</ele><time>2026-04-09T11:06:27.426Z</time></trkpt><trkpt lat="42.4199597" lon="13.3752363"><ele>962.5714285714286</ele><time>2026-04-09T11:06:28.426Z</time></trkpt><trkpt lat="42.4200078" lon="13.3751682"><ele>961.7142857142857</ele><time>2026-04-09T11:06:29.427Z</time></trkpt><trkpt lat="42.4200564" lon="13.3750875"><ele>960.8571428571429</ele><time>2026-04-09T11:06:30.427Z</time></trkpt><trkpt lat="42.4201045" lon="13.3750029"><ele>960.0</ele><time>2026-04-09T11:06:31.426Z</time></trkpt><trkpt lat="42.4201566" lon="13.3749289"><ele>960.0</ele><time>2026-04-09T11:06:32.427Z</time></trkpt><trkpt lat="42.4202158" lon="13.3748447"><ele>960.0</ele><time>2026-04-09T11:06:33.427Z</time></trkpt><trkpt lat="42.4202782" lon="13.3747646"><ele>960.0</ele><time>2026-04-09T11:06:34.427Z</time></trkpt><trkpt lat="42.4203479" lon="13.3746962"><ele>960.0</ele><time>2026-04-09T11:06:35.426Z</time></trkpt><trkpt lat="42.4204137" lon="13.3746309"><ele>960.0</ele><time>2026-04-09T11:06:36.427Z</time></trkpt><trkpt lat="42.4204815" lon="13.3745668"><ele>960.0</ele><time>2026-04-09T11:06:37.427Z</time></trkpt><trkpt lat="42.4205423" lon="13.3745088"><ele>958.3333333333334</ele><time>2026-04-09T11:06:38.427Z</time></trkpt><trkpt lat="42.4206016" lon="13.3744604"><ele>956.6666666666667</ele><time>2026-04-09T11:06:39.428Z</time></trkpt><trkpt lat="42.420662" lon="13.374423"><ele>955.0</ele><time>2026-04-09T11:06:40.428Z</time></trkpt><trkpt lat="42.4207269" lon="13.3743947"><ele>953.3333333333334</ele><time>2026-04-09T11:06:41.428Z</time></trkpt><trkpt lat="42.4207918" lon="13.3743756"><ele>951.6666666666667</ele><time>2026-04-09T11:06:42.427Z</time></trkpt><trkpt lat="42.4209028" lon="13.3743374"><ele>950.0</ele><time>2026-04-09T11:06:44.426Z</time></trkpt><trkpt lat="42.4209489" lon="13.3742579"><ele>950.0</ele><time>2026-04-09T11:06:46.426Z</time></trkpt><trkpt lat="42.4209073" lon="13.374183"><ele>950.0</ele><time>2026-04-09T11:06:48.426Z</time></trkpt><trkpt lat="42.420791" lon="13.3741619"><ele>950.0</ele><time>2026-04-09T11:06:50.426Z</time></trkpt><trkpt lat="42.4207103" lon="13.374178"><ele>950.0</ele><time>2026-04-09T11:06:51.426Z</time></trkpt><trkpt lat="42.4206176" lon="13.3741892"><ele>950.0</ele><time>2026-04-09T11:06:52.426Z</time></trkpt><trkpt lat="42.4205308" lon="13.3742181"><ele>946.0</ele><time>2026-04-09T11:06:53.426Z</time></trkpt><trkpt lat="42.4204385" lon="13.374259"><ele>942.0</ele><time>2026-04-09T11:06:54.426Z</time></trkpt><trkpt lat="42.4203413" lon="13.374289"><ele>938.0</ele><time>2026-04-09T11:06:55.426Z</time></trkpt><trkpt lat="42.4202372" lon="13.3743199"><ele>934.0</ele><time>2026-04-09T11:06:56.426Z</time></trkpt><trkpt lat="42.4201421" lon="13.3743574"><ele>930.0</ele><time>2026-04-09T11:06:57.426Z</time></trkpt><trkpt lat="42.4200512" lon="13.374398"><ele>930.0</ele><time>2026-04-09T11:06:58.426Z</time></trkpt><trkpt lat="42.4199734" lon="13.3744448"><ele>930.0</ele><time>2026-04-09T11:06:59.426Z</time></trkpt><trkpt lat="42.4199029" lon="13.3744889"><ele>930.0</ele><time>2026-04-09T11:07:00.427Z</time></trkpt><trkpt lat="42.4198382" lon="13.3745402"><ele>930.0</ele><time>2026-04-09T11:07:01.426Z</time></trkpt><trkpt lat="42.4197815" lon="13.3745992"><ele>930.0</ele><time>2026-04-09T11:07:02.426Z</time></trkpt><trkpt lat="42.419716" lon="13.3746427"><ele>930.0</ele><time>2026-04-09T11:07:03.427Z</time></trkpt><trkpt lat="42.4196498" lon="13.3746811"><ele>930.5</ele><time>2026-04-09T11:07:04.426Z</time></trkpt><trkpt lat="42.4195882" lon="13.3747069"><ele>931.0</ele><time>2026-04-09T11:07:05.427Z</time></trkpt><trkpt lat="42.4195287" lon="13.3747391"><ele>931.5</ele><time>2026-04-09T11:07:06.426Z</time></trkpt><trkpt lat="42.4194387" lon="13.3748053"><ele>932.0</ele><time>2026-04-09T11:07:08.426Z</time></trkpt><trkpt lat="42.419377" lon="13.3747497"><ele>932.5</ele><time>2026-04-09T11:07:11.426Z</time></trkpt><trkpt lat="42.4194142" lon="13.3746563"><ele>933.0</ele><time>2026-04-09T11:07:13.427Z</time></trkpt><trkpt lat="42.4195032" lon="13.3745663"><ele>932.4</ele><time>2026-04-09T11:07:15.426Z</time></trkpt><trkpt lat="42.419607" lon="13.3744748"><ele>931.8</ele><time>2026-04-09T11:07:17.426Z</time></trkpt><trkpt lat="42.4196563" lon="13.374419"><ele>931.2</ele><time>2026-04-09T11:07:18.426Z</time></trkpt><trkpt lat="42.4197394" lon="13.3742833"><ele>930.6</ele><time>2026-04-09T11:07:20.426Z</time></trkpt><trkpt lat="42.4197862" lon="13.3742076"><ele>930.0</ele><time>2026-04-09T11:07:21.426Z</time></trkpt><trkpt lat="42.4198315" lon="13.374128"><ele>930.0</ele><time>2026-04-09T11:07:22.426Z</time></trkpt><trkpt lat="42.41988" lon="13.3740561"><ele>930.0</ele><time>2026-04-09T11:07:23.425Z</time></trkpt><trkpt lat="42.4199323" lon="13.3739895"><ele>930.0</ele><time>2026-04-09T11:07:24.426Z</time></trkpt><trkpt lat="42.4199877" lon="13.3739317"><ele>930.0</ele><time>2026-04-09T11:07:25.426Z</time></trkpt><trkpt lat="42.4200444" lon="13.3738805"><ele>930.0</ele><time>2026-04-09T11:07:26.426Z</time></trkpt><trkpt lat="42.420101" lon="13.3738368"><ele>930.0</ele><time>2026-04-09T11:07:27.426Z</time></trkpt><trkpt lat="42.4201593" lon="13.3737943"><ele>930.0</ele><time>2026-04-09T11:07:28.426Z</time></trkpt><trkpt lat="42.4202358" lon="13.3737179"><ele>930.0</ele><time>2026-04-09T11:07:30.426Z</time></trkpt><trkpt lat="42.4202013" lon="13.3736217"><ele>930.0</ele><time>2026-04-09T11:07:33.426Z</time></trkpt><trkpt lat="42.4200963" lon="13.373675"><ele>930.0</ele><time>2026-04-09T11:07:35.426Z</time></trkpt><trkpt lat="42.4200228" lon="13.3737463"><ele>930.0</ele><time>2026-04-09T11:07:36.426Z</time></trkpt><trkpt lat="42.4199415" lon="13.3738163"><ele>930.0</ele><time>2026-04-09T11:07:37.426Z</time></trkpt><trkpt lat="42.4198512" lon="13.3738774"><ele>930.0</ele><time>2026-04-09T11:07:38.426Z</time></trkpt><trkpt lat="42.4197536" lon="13.3739619"><ele>930.0</ele><time>2026-04-09T11:07:39.425Z</time></trkpt><trkpt lat="42.4196642" lon="13.3740438"><ele>930.0</ele><time>2026-04-09T11:07:40.426Z</time></trkpt><trkpt lat="42.4195769" lon="13.3741094"><ele>930.0</ele><time>2026-04-09T11:07:41.426Z</time></trkpt><trkpt lat="42.4194809" lon="13.3741649"><ele>930.0</ele><time>2026-04-09T11:07:42.426Z</time></trkpt><trkpt lat="42.4193832" lon="13.3742195"><ele>923.25</ele><time>2026-04-09T11:07:43.425Z</time></trkpt><trkpt lat="42.4192926" lon="13.3742837"><ele>916.5</ele><time>2026-04-09T11:07:44.425Z</time></trkpt><trkpt lat="42.4192025" lon="13.3743639"><ele>909.75</ele><time>2026-04-09T11:07:45.425Z</time></trkpt><trkpt lat="42.4191026" lon="13.3744599"><ele>903.0</ele><time>2026-04-09T11:07:46.426Z</time></trkpt><trkpt lat="42.4190035" lon="13.374556"><ele>903.0</ele><time>2026-04-09T11:07:47.426Z</time></trkpt><trkpt lat="42.418906" lon="13.3746588"><ele>903.0</ele><time>2026-04-09T11:07:48.426Z</time></trkpt><trkpt lat="42.41881" lon="13.3747623"><ele>903.0</ele><time>2026-04-09T11:07:49.425Z</time></trkpt><trkpt lat="42.4187088" lon="13.3748554"><ele>903.0</ele><time>2026-04-09T11:07:50.426Z</time></trkpt><trkpt lat="42.418609" lon="13.3749455"><ele>903.0</ele><time>2026-04-09T11:07:51.426Z</time></trkpt><trkpt lat="42.4185172" lon="13.3750345"><ele>903.0</ele><time>2026-04-09T11:07:52.426Z</time></trkpt><trkpt lat="42.4184315" lon="13.3751225"><ele>903.0</ele><time>2026-04-09T11:07:53.425Z</time></trkpt><trkpt lat="42.4183545" lon="13.3752252"><ele>903.0</ele><time>2026-04-09T11:07:54.425Z</time></trkpt><trkpt lat="42.4182842" lon="13.3753449"><ele>903.0</ele><time>2026-04-09T11:07:55.425Z</time></trkpt><trkpt lat="42.4182193" lon="13.3754679"><ele>903.2</ele><time>2026-04-09T11:07:56.426Z</time></trkpt><trkpt lat="42.4181574" lon="13.3755807"><ele>903.4</ele><time>2026-04-09T11:07:57.426Z</time></trkpt><trkpt lat="42.4180977" lon="13.3756848"><ele>903.6000000000001</ele><time>2026-04-09T11:07:58.426Z</time></trkpt><trkpt lat="42.418037" lon="13.3757814"><ele>903.8000000000001</ele><time>2026-04-09T11:07:59.426Z</time></trkpt><trkpt lat="42.4179762" lon="13.3758636"><ele>904.0</ele><time>2026-04-09T11:08:00.426Z</time></trkpt><trkpt lat="42.4179203" lon="13.3759309"><ele>904.0</ele><time>2026-04-09T11:08:01.425Z</time></trkpt><trkpt lat="42.4178673" lon="13.3759952"><ele>904.0000000000001</ele><time>2026-04-09T11:08:02.425Z</time></trkpt><trkpt lat="42.4178272" lon="13.3760614"><ele>904.0000000000001</ele><time>2026-04-09T11:08:03.425Z</time></trkpt><trkpt lat="42.4177343" lon="13.376139"><ele>904.0</ele><time>2026-04-09T11:08:05.426Z</time></trkpt><trkpt lat="42.4176284" lon="13.3761243"><ele>904.0</ele><time>2026-04-09T11:08:07.426Z</time></trkpt><trkpt lat="42.4175628" lon="13.3759955"><ele>903.9999999999999</ele><time>2026-04-09T11:08:09.427Z</time></trkpt><trkpt lat="42.4175932" lon="13.3758336"><ele>904.0</ele><time>2026-04-09T11:08:11.426Z</time></trkpt><trkpt lat="42.4176318" lon="13.3757536"><ele>904.0</ele><time>2026-04-09T11:08:12.427Z</time></trkpt><trkpt lat="42.4176816" lon="13.3756706"><ele>904.0</ele><time>2026-04-09T11:08:13.426Z</time></trkpt><trkpt lat="42.4177198" lon="13.3755803"><ele>903.9999999999999</ele><time>2026-04-09T11:08:14.426Z</time></trkpt><trkpt lat="42.41776" lon="13.3754883"><ele>904.0</ele><time>2026-04-09T11:08:15.426Z</time></trkpt><trkpt lat="42.4178057" lon="13.3753813"><ele>904.2</ele><time>2026-04-09T11:08:16.425Z</time></trkpt><trkpt lat="42.4178478" lon="13.3752695"><ele>904.4000000000001</ele><time>2026-04-09T11:08:17.426Z</time></trkpt><trkpt lat="42.4178894" lon="13.3751595"><ele>904.6</ele><time>2026-04-09T11:08:18.426Z</time></trkpt><trkpt lat="42.4179355" lon="13.3750528"><ele>904.8</ele><time>2026-04-09T11:08:19.426Z</time></trkpt><trkpt lat="42.417976" lon="13.3749441"><ele>905.0</ele><time>2026-04-09T11:08:20.426Z</time></trkpt><trkpt lat="42.4180097" lon="13.3748327"><ele>904.6666666666667</ele><time>2026-04-09T11:08:21.426Z</time></trkpt><trkpt lat="42.4180408" lon="13.3747255"><ele>904.3333333333334</ele><time>2026-04-09T11:08:22.426Z</time></trkpt><trkpt lat="42.4180672" lon="13.3746182"><ele>904.0</ele><time>2026-04-09T11:08:23.426Z</time></trkpt><trkpt lat="42.418089" lon="13.3745137"><ele>903.6666666666667</ele><time>2026-04-09T11:08:24.426Z</time></trkpt><trkpt lat="42.4181145" lon="13.3744107"><ele>903.3333333333334</ele><time>2026-04-09T11:08:25.426Z</time></trkpt><trkpt lat="42.4181423" lon="13.374312"><ele>903.0</ele><time>2026-04-09T11:08:26.425Z</time></trkpt><trkpt lat="42.418187" lon="13.3742111"><ele>900.6666666666666</ele><time>2026-04-09T11:08:27.426Z</time></trkpt><trkpt lat="42.4182342" lon="13.3741218"><ele>898.3333333333333</ele><time>2026-04-09T11:08:28.426Z</time></trkpt><trkpt lat="42.4182872" lon="13.3740393"><ele>896.0</ele><time>2026-04-09T11:08:29.425Z</time></trkpt><trkpt lat="42.4183448" lon="13.3739653"><ele>893.6666666666666</ele><time>2026-04-09T11:08:30.426Z</time></trkpt><trkpt lat="42.4184095" lon="13.3739052"><ele>891.3333333333333</ele><time>2026-04-09T11:08:31.426Z</time></trkpt><trkpt lat="42.4184694" lon="13.373845"><ele>889.0</ele><time>2026-04-09T11:08:32.426Z</time></trkpt><trkpt lat="42.4185572" lon="13.373729"><ele>888.6666666666666</ele><time>2026-04-09T11:08:34.425Z</time></trkpt><trkpt lat="42.4185952" lon="13.3736356"><ele>888.3333333333333</ele><time>2026-04-09T11:08:35.426Z</time></trkpt><trkpt lat="42.4186342" lon="13.3735449"><ele>888.0</ele><time>2026-04-09T11:08:36.426Z</time></trkpt><trkpt lat="42.4186709" lon="13.3734517"><ele>887.6666666666667</ele><time>2026-04-09T11:08:37.426Z</time></trkpt><trkpt lat="42.4187165" lon="13.3733598"><ele>887.3333333333334</ele><time>2026-04-09T11:08:38.426Z</time></trkpt><trkpt lat="42.4187584" lon="13.3732613"><ele>887.0</ele><time>2026-04-09T11:08:39.426Z</time></trkpt><trkpt lat="42.4187943" lon="13.3731559"><ele>886.3333333333334</ele><time>2026-04-09T11:08:40.426Z</time></trkpt><trkpt lat="42.4188273" lon="13.3730562"><ele>885.6666666666667</ele><time>2026-04-09T11:08:41.426Z</time></trkpt><trkpt lat="42.4188583" lon="13.3729604"><ele>885.0</ele><time>2026-04-09T11:08:42.426Z</time></trkpt><trkpt lat="42.4188946" lon="13.3728614"><ele>884.3333333333333</ele><time>2026-04-09T11:08:43.425Z</time></trkpt><trkpt lat="42.4189387" lon="13.3727664"><ele>883.6666666666666</ele><time>2026-04-09T11:08:44.426Z</time></trkpt><trkpt lat="42.4189753" lon="13.37266"><ele>883.0</ele><time>2026-04-09T11:08:45.426Z</time></trkpt><trkpt lat="42.4190058" lon="13.372546"><ele>881.4</ele><time>2026-04-09T11:08:46.426Z</time></trkpt><trkpt lat="42.4190256" lon="13.3724338"><ele>879.8</ele><time>2026-04-09T11:08:47.426Z</time></trkpt><trkpt lat="42.4190481" lon="13.3723112"><ele>878.2</ele><time>2026-04-09T11:08:48.425Z</time></trkpt><trkpt lat="42.419063" lon="13.3721923"><ele>876.6</ele><time>2026-04-09T11:08:49.425Z</time></trkpt><trkpt lat="42.4190821" lon="13.3720669"><ele>875.0</ele><time>2026-04-09T11:08:50.426Z</time></trkpt><trkpt lat="42.4191016" lon="13.3719411"><ele>873.0</ele><time>2026-04-09T11:08:51.426Z</time></trkpt><trkpt lat="42.4191341" lon="13.3718103"><ele>871.0</ele><time>2026-04-09T11:08:52.426Z</time></trkpt><trkpt lat="42.4191574" lon="13.3716972"><ele>869.0</ele><time>2026-04-09T11:08:53.426Z</time></trkpt><trkpt lat="42.4191929" lon="13.3715725"><ele>867.0</ele><time>2026-04-09T11:08:54.427Z</time></trkpt><trkpt lat="42.4192208" lon="13.3714587"><ele>865.0</ele><time>2026-04-09T11:08:55.425Z</time></trkpt><trkpt lat="42.4192422" lon="13.3713502"><ele>864.8333333333333</ele><time>2026-04-09T11:08:56.426Z</time></trkpt><trkpt lat="42.4192618" lon="13.371242"><ele>864.6666666666666</ele><time>2026-04-09T11:08:57.426Z</time></trkpt><trkpt lat="42.4192825" lon="13.3711481"><ele>864.5</ele><time>2026-04-09T11:08:58.425Z</time></trkpt><trkpt lat="42.4193176" lon="13.3710235"><ele>864.3333333333333</ele><time>2026-04-09T11:09:00.427Z</time></trkpt><trkpt lat="42.4193642" lon="13.3709164"><ele>864.1666666666666</ele><time>2026-04-09T11:09:02.426Z</time></trkpt><trkpt lat="42.4194358" lon="13.3708287"><ele>864.0</ele><time>2026-04-09T11:09:04.425Z</time></trkpt><trkpt lat="42.4195255" lon="13.3707597"><ele>864.0</ele><time>2026-04-09T11:09:06.425Z</time></trkpt><trkpt lat="42.4195841" lon="13.3707178"><ele>864.0</ele><time>2026-04-09T11:09:07.426Z</time></trkpt><trkpt lat="42.4196619" lon="13.3705686"><ele>864.0</ele><time>2026-04-09T11:09:09.427Z</time></trkpt><trkpt lat="42.4196984" lon="13.3704699"><ele>864.0</ele><time>2026-04-09T11:09:10.426Z</time></trkpt><trkpt lat="42.4197218" lon="13.3703741"><ele>864.0</ele><time>2026-04-09T11:09:11.425Z</time></trkpt><trkpt lat="42.4197513" lon="13.3702679"><ele>864.0</ele><time>2026-04-09T11:09:12.425Z</time></trkpt><trkpt lat="42.4197783" lon="13.3701539"><ele>863.5</ele><time>2026-04-09T11:09:13.425Z</time></trkpt><trkpt lat="42.4197981" lon="13.3700456"><ele>863.0</ele><time>2026-04-09T11:09:14.425Z</time></trkpt><trkpt lat="42.4197907" lon="13.3699141"><ele>862.5</ele><time>2026-04-09T11:09:15.425Z</time></trkpt><trkpt lat="42.4197897" lon="13.3698004"><ele>862.0</ele><time>2026-04-09T11:09:16.426Z</time></trkpt><trkpt lat="42.4197983" lon="13.369685"><ele>861.5</ele><time>2026-04-09T11:09:17.426Z</time></trkpt><trkpt lat="42.4198143" lon="13.3695673"><ele>861.0</ele><time>2026-04-09T11:09:18.426Z</time></trkpt><trkpt lat="42.4198471" lon="13.3694559"><ele>860.8</ele><time>2026-04-09T11:09:19.426Z</time></trkpt><trkpt lat="42.4198772" lon="13.3693408"><ele>860.5999999999999</ele><time>2026-04-09T11:09:20.425Z</time></trkpt><trkpt lat="42.4199025" lon="13.3692213"><ele>860.4</ele><time>2026-04-09T11:09:21.425Z</time></trkpt><trkpt lat="42.4199143" lon="13.3690964"><ele>860.2</ele><time>2026-04-09T11:09:22.425Z</time></trkpt><trkpt lat="42.4199238" lon="13.3689557"><ele>860.0</ele><time>2026-04-09T11:09:23.426Z</time></trkpt><trkpt lat="42.4199173" lon="13.3688199"><ele>860.0</ele><time>2026-04-09T11:09:24.426Z</time></trkpt><trkpt lat="42.419907" lon="13.3686856"><ele>860.0</ele><time>2026-04-09T11:09:25.426Z</time></trkpt><trkpt lat="42.4198948" lon="13.3685513"><ele>860.0</ele><time>2026-04-09T11:09:26.427Z</time></trkpt><trkpt lat="42.4198829" lon="13.3684356"><ele>860.0</ele><time>2026-04-09T11:09:27.426Z</time></trkpt><trkpt lat="42.4198723" lon="13.3683234"><ele>860.0</ele><time>2026-04-09T11:09:28.426Z</time></trkpt><trkpt lat="42.419855" lon="13.3681937"><ele>860.0</ele><time>2026-04-09T11:09:29.425Z</time></trkpt><trkpt lat="42.4198387" lon="13.3680656"><ele>860.0</ele><time>2026-04-09T11:09:30.426Z</time></trkpt><trkpt lat="42.4198278" lon="13.3679376"><ele>860.0</ele><time>2026-04-09T11:09:31.427Z</time></trkpt><trkpt lat="42.4198206" lon="13.3678125"><ele>860.0</ele><time>2026-04-09T11:09:32.425Z</time></trkpt><trkpt lat="42.4198026" lon="13.3676888"><ele>860.0</ele><time>2026-04-09T11:09:33.426Z</time></trkpt><trkpt lat="42.4197738" lon="13.3675672"><ele>860.8</ele><time>2026-04-09T11:09:34.426Z</time></trkpt><trkpt lat="42.419738" lon="13.3674404"><ele>861.6</ele><time>2026-04-09T11:09:35.426Z</time></trkpt><trkpt lat="42.4197045" lon="13.3673253"><ele>862.4000000000001</ele><time>2026-04-09T11:09:36.426Z</time></trkpt><trkpt lat="42.4196696" lon="13.3672058"><ele>863.2</ele><time>2026-04-09T11:09:37.426Z</time></trkpt><trkpt lat="42.4196405" lon="13.3670843"><ele>864.0</ele><time>2026-04-09T11:09:38.426Z</time></trkpt><trkpt lat="42.4196107" lon="13.3669488"><ele>859.25</ele><time>2026-04-09T11:09:39.427Z</time></trkpt><trkpt lat="42.4195803" lon="13.3668084"><ele>854.5</ele><time>2026-04-09T11:09:40.425Z</time></trkpt><trkpt lat="42.4195457" lon="13.3666587"><ele>849.75</ele><time>2026-04-09T11:09:41.425Z</time></trkpt><trkpt lat="42.4195095" lon="13.3665032"><ele>845.0</ele><time>2026-04-09T11:09:42.426Z</time></trkpt><trkpt lat="42.4194688" lon="13.366342"><ele>845.0</ele><time>2026-04-09T11:09:43.425Z</time></trkpt><trkpt lat="42.4194279" lon="13.366192"><ele>845.0</ele><time>2026-04-09T11:09:44.426Z</time></trkpt><trkpt lat="42.4193844" lon="13.3660515"><ele>845.0</ele><time>2026-04-09T11:09:45.426Z</time></trkpt><trkpt lat="42.4193442" lon="13.3659187"><ele>845.0</ele><time>2026-04-09T11:09:46.425Z</time></trkpt><trkpt lat="42.419299" lon="13.3657976"><ele>845.0</ele><time>2026-04-09T11:09:47.426Z</time></trkpt><trkpt lat="42.4192564" lon="13.3656688"><ele>845.0</ele><time>2026-04-09T11:09:48.427Z</time></trkpt><trkpt lat="42.4192095" lon="13.3655542"><ele>845.0</ele><time>2026-04-09T11:09:49.426Z</time></trkpt><trkpt lat="42.4191679" lon="13.3654347"><ele>845.0</ele><time>2026-04-09T11:09:50.425Z</time></trkpt><trkpt lat="42.419088" lon="13.3653334"><ele>845.0</ele><time>2026-04-09T11:09:51.426Z</time></trkpt><trkpt lat="42.4190128" lon="13.3652306"><ele>845.0</ele><time>2026-04-09T11:09:52.426Z</time></trkpt><trkpt lat="42.4189426" lon="13.3651363"><ele>845.5000000000001</ele><time>2026-04-09T11:09:53.425Z</time></trkpt><trkpt lat="42.4188847" lon="13.3650305"><ele>846.0</ele><time>2026-04-09T11:09:54.426Z</time></trkpt><trkpt lat="42.4188252" lon="13.3649277"><ele>846.5</ele><time>2026-04-09T11:09:55.427Z</time></trkpt><trkpt lat="42.4187875" lon="13.3648213"><ele>847.0</ele><time>2026-04-09T11:09:56.426Z</time></trkpt><trkpt lat="42.4187574" lon="13.3647169"><ele>847.5000000000001</ele><time>2026-04-09T11:09:57.426Z</time></trkpt><trkpt lat="42.4187435" lon="13.3646278"><ele>848.0</ele><time>2026-04-09T11:09:58.425Z</time></trkpt><trkpt lat="42.418723" lon="13.3645019"><ele>845.8333333333334</ele><time>2026-04-09T11:10:00.426Z</time></trkpt><trkpt lat="42.4186548" lon="13.3644481"><ele>843.6666666666667</ele><time>2026-04-09T11:10:04.425Z</time></trkpt><trkpt lat="42.4185672" lon="13.3643666"><ele>841.5</ele><time>2026-04-09T11:10:06.425Z</time></trkpt><trkpt lat="42.4184645" lon="13.3642777"><ele>839.3333333333333</ele><time>2026-04-09T11:10:08.425Z</time></trkpt><trkpt lat="42.4184075" lon="13.3642346"><ele>837.1666666666666</ele><time>2026-04-09T11:10:09.426Z</time></trkpt><trkpt lat="42.4183583" lon="13.3641762"><ele>835.0</ele><time>2026-04-09T11:10:10.426Z</time></trkpt><trkpt lat="42.4183049" lon="13.3640924"><ele>834.9999999999999</ele><time>2026-04-09T11:10:11.426Z</time></trkpt><trkpt lat="42.4182568" lon="13.3639993"><ele>835.0</ele><time>2026-04-09T11:10:12.426Z</time></trkpt><trkpt lat="42.4182197" lon="13.3639134"><ele>835.0</ele><time>2026-04-09T11:10:13.425Z</time></trkpt><trkpt lat="42.4181911" lon="13.3638048"><ele>835.0</ele><time>2026-04-09T11:10:14.425Z</time></trkpt><trkpt lat="42.418164" lon="13.3636941"><ele>834.9999999999999</ele><time>2026-04-09T11:10:15.427Z</time></trkpt><trkpt lat="42.4181388" lon="13.3635932"><ele>835.0</ele><time>2026-04-09T11:10:16.425Z</time></trkpt><trkpt lat="42.4181122" lon="13.3635034"><ele>835.0000000000001</ele><time>2026-04-09T11:10:17.425Z</time></trkpt><trkpt lat="42.4180801" lon="13.3634131"><ele>835.0</ele><time>2026-04-09T11:10:18.425Z</time></trkpt><trkpt lat="42.4180472" lon="13.3633218"><ele>835.0</ele><time>2026-04-09T11:10:19.426Z</time></trkpt><trkpt lat="42.418012" lon="13.3632337"><ele>835.0</ele><time>2026-04-09T11:10:20.426Z</time></trkpt><trkpt lat="42.4179632" lon="13.363157"><ele>835.0</ele><time>2026-04-09T11:10:21.425Z</time></trkpt><trkpt lat="42.417935" lon="13.363069"><ele>835.0000000000001</ele><time>2026-04-09T11:10:22.426Z</time></trkpt><trkpt lat="42.4179105" lon="13.3629775"><ele>835.0</ele><time>2026-04-09T11:10:23.426Z</time></trkpt><trkpt lat="42.4178791" lon="13.3628849"><ele>834.2</ele><time>2026-04-09T11:10:24.426Z</time></trkpt><trkpt lat="42.4178426" lon="13.3627975"><ele>833.4</ele><time>2026-04-09T11:10:25.426Z</time></trkpt><trkpt lat="42.4178045" lon="13.3627245"><ele>832.5999999999999</ele><time>2026-04-09T11:10:26.427Z</time></trkpt><trkpt lat="42.4177427" lon="13.3625852"><ele>831.8</ele><time>2026-04-09T11:10:28.426Z</time></trkpt><trkpt lat="42.4177077" lon="13.3624996"><ele>831.0</ele><time>2026-04-09T11:10:29.426Z</time></trkpt><trkpt lat="42.4176561" lon="13.362345"><ele>831.0</ele><time>2026-04-09T11:10:31.426Z</time></trkpt><trkpt lat="42.4175741" lon="13.3622179"><ele>831.0</ele><time>2026-04-09T11:10:33.427Z</time></trkpt><trkpt lat="42.4175275" lon="13.3621514"><ele>831.0</ele><time>2026-04-09T11:10:34.426Z</time></trkpt><trkpt lat="42.4174803" lon="13.3620856"><ele>831.0</ele><time>2026-04-09T11:10:35.426Z</time></trkpt><trkpt lat="42.4174392" lon="13.3620099"><ele>831.0</ele><time>2026-04-09T11:10:36.425Z</time></trkpt><trkpt lat="42.4173911" lon="13.3619364"><ele>831.0</ele><time>2026-04-09T11:10:37.426Z</time></trkpt><trkpt lat="42.4173414" lon="13.3618682"><ele>831.0</ele><time>2026-04-09T11:10:38.426Z</time></trkpt><trkpt lat="42.417288" lon="13.3618022"><ele>831.0</ele><time>2026-04-09T11:10:39.426Z</time></trkpt><trkpt lat="42.4171948" lon="13.3616834"><ele>831.0</ele><time>2026-04-09T11:10:41.426Z</time></trkpt><trkpt lat="42.4171475" lon="13.3616065"><ele>831.0</ele><time>2026-04-09T11:10:42.426Z</time></trkpt><trkpt lat="42.4171009" lon="13.3615228"><ele>831.0</ele><time>2026-04-09T11:10:43.426Z</time></trkpt><trkpt lat="42.4170529" lon="13.3614423"><ele>831.0</ele><time>2026-04-09T11:10:44.426Z</time></trkpt><trkpt lat="42.4170047" lon="13.3613568"><ele>831.0</ele><time>2026-04-09T11:10:45.425Z</time></trkpt><trkpt lat="42.4169603" lon="13.3612645"><ele>831.0</ele><time>2026-04-09T11:10:46.426Z</time></trkpt><trkpt lat="42.4169168" lon="13.3611631"><ele>831.0</ele><time>2026-04-09T11:10:47.426Z</time></trkpt><trkpt lat="42.416868" lon="13.361063"><ele>831.0</ele><time>2026-04-09T11:10:48.426Z</time></trkpt><trkpt lat="42.4168257" lon="13.360972"><ele>831.0</ele><time>2026-04-09T11:10:49.426Z</time></trkpt><trkpt lat="42.4167698" lon="13.3608751"><ele>831.0</ele><time>2026-04-09T11:10:50.426Z</time></trkpt><trkpt lat="42.4167171" lon="13.360781"><ele>831.0</ele><time>2026-04-09T11:10:51.426Z</time></trkpt><trkpt lat="42.4166734" lon="13.3607025"><ele>831.0</ele><time>2026-04-09T11:10:52.426Z</time></trkpt><trkpt lat="42.4166204" lon="13.3606144"><ele>831.0</ele><time>2026-04-09T11:10:53.426Z</time></trkpt><trkpt lat="42.4165592" lon="13.3605251"><ele>831.0</ele><time>2026-04-09T11:10:54.425Z</time></trkpt><trkpt lat="42.4164964" lon="13.3604346"><ele>831.0</ele><time>2026-04-09T11:10:55.426Z</time></trkpt><trkpt lat="42.4164333" lon="13.3603484"><ele>831.0</ele><time>2026-04-09T11:10:56.425Z</time></trkpt><trkpt lat="42.4163729" lon="13.3602723"><ele>830.5</ele><time>2026-04-09T11:10:57.426Z</time></trkpt><trkpt lat="42.4163153" lon="13.3601919"><ele>830.0</ele><time>2026-04-09T11:10:58.426Z</time></trkpt><trkpt lat="42.4162621" lon="13.3601054"><ele>829.5</ele><time>2026-04-09T11:10:59.427Z</time></trkpt><trkpt lat="42.4162101" lon="13.3600145"><ele>829.0</ele><time>2026-04-09T11:11:00.426Z</time></trkpt><trkpt lat="42.4161625" lon="13.3599349"><ele>828.5</ele><time>2026-04-09T11:11:01.426Z</time></trkpt><trkpt lat="42.4161184" lon="13.3598505"><ele>828.0</ele><time>2026-04-09T11:11:02.426Z</time></trkpt><trkpt lat="42.4160764" lon="13.3597759"><ele>827.4</ele><time>2026-04-09T11:11:03.425Z</time></trkpt><trkpt lat="42.416007" lon="13.3596301"><ele>826.8</ele><time>2026-04-09T11:11:05.426Z</time></trkpt><trkpt lat="42.4159718" lon="13.359557"><ele>826.2</ele><time>2026-04-09T11:11:06.426Z</time></trkpt><trkpt lat="42.4159057" lon="13.3594249"><ele>825.6</ele><time>2026-04-09T11:11:08.426Z</time></trkpt><trkpt lat="42.4158354" lon="13.3592997"><ele>825.0</ele><time>2026-04-09T11:11:10.427Z</time></trkpt><trkpt lat="42.4157641" lon="13.359178"><ele>825.0</ele><time>2026-04-09T11:11:12.425Z</time></trkpt><trkpt lat="42.415719" lon="13.3590427"><ele>825.0</ele><time>2026-04-09T11:11:14.425Z</time></trkpt><trkpt lat="42.4156981" lon="13.3589612"><ele>825.0</ele><time>2026-04-09T11:11:15.426Z</time></trkpt><trkpt lat="42.4156848" lon="13.3588676"><ele>825.0</ele><time>2026-04-09T11:11:16.426Z</time></trkpt><trkpt lat="42.4156725" lon="13.3587635"><ele>825.0</ele><time>2026-04-09T11:11:17.426Z</time></trkpt><trkpt lat="42.41567" lon="13.3586688"><ele>825.0</ele><time>2026-04-09T11:11:18.425Z</time></trkpt><trkpt lat="42.4156703" lon="13.3585693"><ele>825.0</ele><time>2026-04-09T11:11:19.426Z</time></trkpt><trkpt lat="42.4156662" lon="13.3584673"><ele>825.0</ele><time>2026-04-09T11:11:20.427Z</time></trkpt><trkpt lat="42.4156524" lon="13.358364"><ele>825.0</ele><time>2026-04-09T11:11:21.425Z</time></trkpt><trkpt lat="42.4156201" lon="13.3582631"><ele>825.0</ele><time>2026-04-09T11:11:22.426Z</time></trkpt><trkpt lat="42.415588" lon="13.3581647"><ele>825.0</ele><time>2026-04-09T11:11:23.426Z</time></trkpt><trkpt lat="42.4155536" lon="13.3580585"><ele>825.0</ele><time>2026-04-09T11:11:24.425Z</time></trkpt><trkpt lat="42.4155267" lon="13.3579611"><ele>824.6666666666666</ele><time>2026-04-09T11:11:25.426Z</time></trkpt><trkpt lat="42.4154995" lon="13.3578696"><ele>824.3333333333333</ele><time>2026-04-09T11:11:26.425Z</time></trkpt><trkpt lat="42.4154653" lon="13.357769"><ele>824.0</ele><time>2026-04-09T11:11:27.426Z</time></trkpt><trkpt lat="42.4154246" lon="13.357675"><ele>823.6666666666666</ele><time>2026-04-09T11:11:28.426Z</time></trkpt><trkpt lat="42.4153845" lon="13.357586"><ele>823.3333333333333</ele><time>2026-04-09T11:11:29.426Z</time></trkpt><trkpt lat="42.4153502" lon="13.3574979"><ele>823.0</ele><time>2026-04-09T11:11:30.426Z</time></trkpt><trkpt lat="42.415313" lon="13.3574185"><ele>821.9999999999999</ele><time>2026-04-09T11:11:31.426Z</time></trkpt><trkpt lat="42.4152848" lon="13.3573288"><ele>821.0</ele><time>2026-04-09T11:11:32.426Z</time></trkpt><trkpt lat="42.4152158" lon="13.3571772"><ele>820.0</ele><time>2026-04-09T11:11:34.425Z</time></trkpt><trkpt lat="42.4151866" lon="13.3570835"><ele>819.0</ele><time>2026-04-09T11:11:35.426Z</time></trkpt><trkpt lat="42.4151573" lon="13.3569931"><ele>817.9999999999999</ele><time>2026-04-09T11:11:36.427Z</time></trkpt><trkpt lat="42.4151284" lon="13.3568967"><ele>817.0</ele><time>2026-04-09T11:11:37.425Z</time></trkpt><trkpt lat="42.4150959" lon="13.356793"><ele>816.1666666666666</ele><time>2026-04-09T11:11:38.427Z</time></trkpt><trkpt lat="42.4150645" lon="13.3566878"><ele>815.3333333333333</ele><time>2026-04-09T11:11:39.426Z</time></trkpt><trkpt lat="42.4150278" lon="13.356586"><ele>814.5</ele><time>2026-04-09T11:11:40.426Z</time></trkpt><trkpt lat="42.4149869" lon="13.3564877"><ele>813.6666666666667</ele><time>2026-04-09T11:11:41.426Z</time></trkpt><trkpt lat="42.4149406" lon="13.3563899"><ele>812.8333333333334</ele><time>2026-04-09T11:11:42.426Z</time></trkpt><trkpt lat="42.4148996" lon="13.3562891"><ele>812.0</ele><time>2026-04-09T11:11:43.425Z</time></trkpt><trkpt lat="42.4148621" lon="13.3561864"><ele>812.0</ele><time>2026-04-09T11:11:44.426Z</time></trkpt><trkpt lat="42.4148152" lon="13.3560785"><ele>812.0</ele><time>2026-04-09T11:11:45.426Z</time></trkpt><trkpt lat="42.4147679" lon="13.3559707"><ele>812.0</ele><time>2026-04-09T11:11:46.426Z</time></trkpt><trkpt lat="42.4147225" lon="13.3558613"><ele>812.0</ele><time>2026-04-09T11:11:47.426Z</time></trkpt><trkpt lat="42.4146778" lon="13.3557434"><ele>812.0</ele><time>2026-04-09T11:11:48.425Z</time></trkpt><trkpt lat="42.4146332" lon="13.3556274"><ele>811.4000000000001</ele><time>2026-04-09T11:11:49.425Z</time></trkpt><trkpt lat="42.414588" lon="13.3555158"><ele>810.8000000000001</ele><time>2026-04-09T11:11:50.425Z</time></trkpt><trkpt lat="42.4145473" lon="13.3554116"><ele>810.2</ele><time>2026-04-09T11:11:51.426Z</time></trkpt><trkpt lat="42.4145072" lon="13.3552992"><ele>809.6</ele><time>2026-04-09T11:11:52.426Z</time></trkpt><trkpt lat="42.4144657" lon="13.3551855"><ele>809.0</ele><time>2026-04-09T11:11:53.426Z</time></trkpt><trkpt lat="42.414427" lon="13.3550753"><ele>809.0000000000001</ele><time>2026-04-09T11:11:54.425Z</time></trkpt><trkpt lat="42.4143911" lon="13.3549721"><ele>809.0</ele><time>2026-04-09T11:11:55.425Z</time></trkpt><trkpt lat="42.4143582" lon="13.3548562"><ele>809.0</ele><time>2026-04-09T11:11:56.426Z</time></trkpt><trkpt lat="42.4143235" lon="13.3547395"><ele>809.0</ele><time>2026-04-09T11:11:57.426Z</time></trkpt><trkpt lat="42.414298" lon="13.3546239"><ele>809.0000000000001</ele><time>2026-04-09T11:11:58.426Z</time></trkpt><trkpt lat="42.4142702" lon="13.3545144"><ele>809.0</ele><time>2026-04-09T11:11:59.426Z</time></trkpt><trkpt lat="42.414232" lon="13.35439"><ele>808.5</ele><time>2026-04-09T11:12:00.426Z</time></trkpt><trkpt lat="42.4142023" lon="13.354242"><ele>808.0</ele><time>2026-04-09T11:12:01.425Z</time></trkpt><trkpt lat="42.4141795" lon="13.3540818"><ele>807.5</ele><time>2026-04-09T11:12:02.426Z</time></trkpt><trkpt lat="42.414154" lon="13.3539218"><ele>807.0</ele><time>2026-04-09T11:12:03.426Z</time></trkpt><trkpt lat="42.4141272" lon="13.353769"><ele>806.4000000000001</ele><time>2026-04-09T11:12:04.425Z</time></trkpt><trkpt lat="42.414103" lon="13.353628"><ele>805.8000000000001</ele><time>2026-04-09T11:12:05.426Z</time></trkpt><trkpt lat="42.414083" lon="13.3534966"><ele>805.2</ele><time>2026-04-09T11:12:06.425Z</time></trkpt><trkpt lat="42.4140653" lon="13.353373"><ele>804.6</ele><time>2026-04-09T11:12:07.426Z</time></trkpt><trkpt lat="42.4140572" lon="13.3532574"><ele>804.0</ele><time>2026-04-09T11:12:08.425Z</time></trkpt><trkpt lat="42.414043" lon="13.3531646"><ele>803.4000000000001</ele><time>2026-04-09T11:12:09.426Z</time></trkpt><trkpt lat="42.4140252" lon="13.3530325"><ele>802.8</ele><time>2026-04-09T11:12:11.426Z</time></trkpt><trkpt lat="42.4140095" lon="13.3529432"><ele>802.2</ele><time>2026-04-09T11:15:04.426Z</time></trkpt><trkpt lat="42.4139873" lon="13.3528393"><ele>801.5999999999999</ele><time>2026-04-09T11:15:06.425Z</time></trkpt><trkpt lat="42.4139712" lon="13.3526671"><ele>801.0</ele><time>2026-04-09T11:15:08.425Z</time></trkpt><trkpt lat="42.4139578" lon="13.3525641"><ele>801.0</ele><time>2026-04-09T11:15:09.426Z</time></trkpt><trkpt lat="42.4139413" lon="13.3524669"><ele>801.0</ele><time>2026-04-09T11:15:10.425Z</time></trkpt><trkpt lat="42.4139282" lon="13.3523646"><ele>801.0</ele><time>2026-04-09T11:15:11.425Z</time></trkpt><trkpt lat="42.4139152" lon="13.3522569"><ele>801.0</ele><time>2026-04-09T11:15:12.424Z</time></trkpt><trkpt lat="42.4139058" lon="13.3521461"><ele>801.0</ele><time>2026-04-09T11:15:13.425Z</time></trkpt><trkpt lat="42.4139017" lon="13.3520226"><ele>801.0</ele><time>2026-04-09T11:15:14.425Z</time></trkpt><trkpt lat="42.4139016" lon="13.3519001"><ele>801.0</ele><time>2026-04-09T11:15:15.425Z</time></trkpt><trkpt lat="42.413908" lon="13.3517824"><ele>801.0</ele><time>2026-04-09T11:15:16.425Z</time></trkpt><trkpt lat="42.4139114" lon="13.3516653"><ele>801.0</ele><time>2026-04-09T11:15:17.425Z</time></trkpt><trkpt lat="42.413922" lon="13.3515516"><ele>801.0</ele><time>2026-04-09T11:15:18.424Z</time></trkpt><trkpt lat="42.4139319" lon="13.351442"><ele>801.0</ele><time>2026-04-09T11:15:19.425Z</time></trkpt><trkpt lat="42.4139381" lon="13.3513341"><ele>801.0</ele><time>2026-04-09T11:15:20.425Z</time></trkpt><trkpt lat="42.4139477" lon="13.3512302"><ele>800.5</ele><time>2026-04-09T11:15:21.425Z</time></trkpt><trkpt lat="42.4139558" lon="13.3511298"><ele>800.0</ele><time>2026-04-09T11:15:22.425Z</time></trkpt><trkpt lat="42.4139648" lon="13.3510271"><ele>799.5</ele><time>2026-04-09T11:15:23.425Z</time></trkpt><trkpt lat="42.4139719" lon="13.3509379"><ele>799.0</ele><time>2026-04-09T11:15:24.425Z</time></trkpt><trkpt lat="42.413984" lon="13.3507827"><ele>798.5</ele><time>2026-04-09T11:15:26.425Z</time></trkpt><trkpt lat="42.4139968" lon="13.3506539"><ele>798.0</ele><time>2026-04-09T11:15:28.424Z</time></trkpt><trkpt lat="42.4139936" lon="13.3505552"><ele>798.0</ele><time>2026-04-09T11:15:30.425Z</time></trkpt><trkpt lat="42.4139878" lon="13.3504587"><ele>798.0</ele><time>2026-04-09T11:15:32.425Z</time></trkpt><trkpt lat="42.4139772" lon="13.350366"><ele>798.0</ele><time>2026-04-09T11:15:34.425Z</time></trkpt><trkpt lat="42.4139762" lon="13.3502612"><ele>798.0</ele><time>2026-04-09T11:15:36.424Z</time></trkpt><trkpt lat="42.4139741" lon="13.3501323"><ele>798.0</ele><time>2026-04-09T11:15:38.424Z</time></trkpt><trkpt lat="42.413973" lon="13.3500108"><ele>798.0</ele><time>2026-04-09T11:15:40.425Z</time></trkpt><trkpt lat="42.4139643" lon="13.349865"><ele>798.0</ele><time>2026-04-09T11:15:42.426Z</time></trkpt><trkpt lat="42.4139577" lon="13.3497777"><ele>798.0</ele><time>2026-04-09T11:15:43.425Z</time></trkpt><trkpt lat="42.4139448" lon="13.3496852"><ele>798.0</ele><time>2026-04-09T11:15:44.425Z</time></trkpt><trkpt lat="42.4139314" lon="13.3495292"><ele>798.0</ele><time>2026-04-09T11:15:46.425Z</time></trkpt><trkpt lat="42.4139177" lon="13.3493991"><ele>798.0</ele><time>2026-04-09T11:15:48.425Z</time></trkpt><trkpt lat="42.413901" lon="13.3493086"><ele>798.0</ele><time>2026-04-09T11:15:50.425Z</time></trkpt><trkpt lat="42.4138706" lon="13.3491946"><ele>797.5</ele><time>2026-04-09T11:15:53.425Z</time></trkpt><trkpt lat="42.4138346" lon="13.3490823"><ele>797.0</ele><time>2026-04-09T11:15:55.425Z</time></trkpt><trkpt lat="42.4137854" lon="13.3489491"><ele>796.5</ele><time>2026-04-09T11:15:57.425Z</time></trkpt><trkpt lat="42.4137222" lon="13.3487945"><ele>796.0</ele><time>2026-04-09T11:15:59.425Z</time></trkpt><trkpt lat="42.4136648" lon="13.3486346"><ele>795.2857142857142</ele><time>2026-04-09T11:16:01.424Z</time></trkpt><trkpt lat="42.4136283" lon="13.348551"><ele>794.5714285714286</ele><time>2026-04-09T11:16:02.425Z</time></trkpt><trkpt lat="42.4135938" lon="13.3484652"><ele>793.8571428571429</ele><time>2026-04-09T11:16:03.425Z</time></trkpt><trkpt lat="42.4135614" lon="13.3483866"><ele>793.1428571428571</ele><time>2026-04-09T11:16:04.425Z</time></trkpt><trkpt lat="42.413525" lon="13.3483019"><ele>792.4285714285714</ele><time>2026-04-09T11:16:05.425Z</time></trkpt><trkpt lat="42.4134909" lon="13.348221"><ele>791.7142857142857</ele><time>2026-04-09T11:16:06.425Z</time></trkpt><trkpt lat="42.4134486" lon="13.3481422"><ele>791.0</ele><time>2026-04-09T11:16:07.424Z</time></trkpt><trkpt lat="42.413405" lon="13.3480591"><ele>791.0</ele><time>2026-04-09T11:16:08.425Z</time></trkpt><trkpt lat="42.4133609" lon="13.3479772"><ele>791.0</ele><time>2026-04-09T11:16:09.424Z</time></trkpt><trkpt lat="42.4133112" lon="13.3478934"><ele>791.0</ele><time>2026-04-09T11:16:10.425Z</time></trkpt><trkpt lat="42.4132584" lon="13.3478128"><ele>791.0</ele><time>2026-04-09T11:16:11.425Z</time></trkpt><trkpt lat="42.413207" lon="13.3477372"><ele>791.0</ele><time>2026-04-09T11:16:12.425Z</time></trkpt><trkpt lat="42.4131617" lon="13.3476713"><ele>791.0</ele><time>2026-04-09T11:16:13.425Z</time></trkpt><trkpt lat="42.413113" lon="13.3476037"><ele>791.0</ele><time>2026-04-09T11:16:14.424Z</time></trkpt><trkpt lat="42.4130609" lon="13.3475299"><ele>791.0</ele><time>2026-04-09T11:16:15.425Z</time></trkpt><trkpt lat="42.4130114" lon="13.3474522"><ele>791.0</ele><time>2026-04-09T11:16:16.424Z</time></trkpt><trkpt lat="42.4129641" lon="13.3473753"><ele>791.0</ele><time>2026-04-09T11:16:17.424Z</time></trkpt><trkpt lat="42.4129245" lon="13.3473039"><ele>791.0</ele><time>2026-04-09T11:16:18.425Z</time></trkpt><trkpt lat="42.4128827" lon="13.3472267"><ele>791.0</ele><time>2026-04-09T11:16:19.425Z</time></trkpt><trkpt lat="42.412842" lon="13.347146"><ele>791.0</ele><time>2026-04-09T11:16:20.425Z</time></trkpt><trkpt lat="42.4128046" lon="13.3470575"><ele>791.0</ele><time>2026-04-09T11:16:21.425Z</time></trkpt><trkpt lat="42.4127698" lon="13.346962"><ele>790.1666666666667</ele><time>2026-04-09T11:16:22.424Z</time></trkpt><trkpt lat="42.4127369" lon="13.3468607"><ele>789.3333333333334</ele><time>2026-04-09T11:16:23.424Z</time></trkpt><trkpt lat="42.4127065" lon="13.3467606"><ele>788.5</ele><time>2026-04-09T11:16:24.424Z</time></trkpt><trkpt lat="42.412685" lon="13.3466641"><ele>787.6666666666667</ele><time>2026-04-09T11:16:25.425Z</time></trkpt><trkpt lat="42.4126678" lon="13.3465722"><ele>786.8333333333334</ele><time>2026-04-09T11:16:26.425Z</time></trkpt><trkpt lat="42.4126507" lon="13.3464745"><ele>786.0</ele><time>2026-04-09T11:16:27.425Z</time></trkpt><trkpt lat="42.412635" lon="13.3463759"><ele>786.0000000000001</ele><time>2026-04-09T11:16:28.424Z</time></trkpt><trkpt lat="42.4126183" lon="13.3462766"><ele>786.0</ele><time>2026-04-09T11:16:29.424Z</time></trkpt><trkpt lat="42.4125993" lon="13.3461833"><ele>786.0</ele><time>2026-04-09T11:16:30.425Z</time></trkpt><trkpt lat="42.4125788" lon="13.3460959"><ele>786.0</ele><time>2026-04-09T11:16:31.424Z</time></trkpt><trkpt lat="42.412556" lon="13.346003"><ele>786.0</ele><time>2026-04-09T11:16:32.425Z</time></trkpt><trkpt lat="42.4125314" lon="13.3459111"><ele>786.0000000000001</ele><time>2026-04-09T11:16:33.425Z</time></trkpt><trkpt lat="42.4125063" lon="13.3458262"><ele>786.0</ele><time>2026-04-09T11:16:34.426Z</time></trkpt><trkpt lat="42.412457" lon="13.3456729"><ele>786.0</ele><time>2026-04-09T11:16:36.424Z</time></trkpt><trkpt lat="42.4124152" lon="13.3455489"><ele>786.0</ele><time>2026-04-09T11:16:38.425Z</time></trkpt><trkpt lat="42.4123644" lon="13.345445"><ele>786.0</ele><time>2026-04-09T11:16:40.424Z</time></trkpt><trkpt lat="42.4122903" lon="13.3453351"><ele>786.0</ele><time>2026-04-09T11:16:42.424Z</time></trkpt><trkpt lat="42.4122204" lon="13.3452169"><ele>786.0</ele><time>2026-04-09T11:16:44.425Z</time></trkpt><trkpt lat="42.412161" lon="13.3451049"><ele>785.1999999999999</ele><time>2026-04-09T11:16:46.425Z</time></trkpt><trkpt lat="42.4120773" lon="13.3449862"><ele>784.4</ele><time>2026-04-09T11:16:48.425Z</time></trkpt><trkpt lat="42.4120275" lon="13.34493"><ele>783.6</ele><time>2026-04-09T11:16:49.424Z</time></trkpt><trkpt lat="42.4119433" lon="13.3448405"><ele>782.8</ele><time>2026-04-09T11:16:51.425Z</time></trkpt><trkpt lat="42.4118632" lon="13.3447564"><ele>782.0</ele><time>2026-04-09T11:16:53.425Z</time></trkpt><trkpt lat="42.4118223" lon="13.3446596"><ele>781.6</ele><time>2026-04-09T11:16:55.424Z</time></trkpt><trkpt lat="42.4118196" lon="13.3445462"><ele>781.2</ele><time>2026-04-09T11:16:57.425Z</time></trkpt><trkpt lat="42.4118333" lon="13.3443995"><ele>780.8</ele><time>2026-04-09T11:16:59.425Z</time></trkpt><trkpt lat="42.4118454" lon="13.3442507"><ele>780.4</ele><time>2026-04-09T11:17:01.425Z</time></trkpt><trkpt lat="42.4118467" lon="13.3440813"><ele>780.0</ele><time>2026-04-09T11:17:03.426Z</time></trkpt><trkpt lat="42.4118437" lon="13.3439932"><ele>780.0</ele><time>2026-04-09T11:17:04.424Z</time></trkpt><trkpt lat="42.4118409" lon="13.3439071"><ele>780.0</ele><time>2026-04-09T11:17:05.425Z</time></trkpt><trkpt lat="42.4118345" lon="13.3438189"><ele>780.0</ele><time>2026-04-09T11:17:06.424Z</time></trkpt><trkpt lat="42.411822" lon="13.3436597"><ele>780.0</ele><time>2026-04-09T11:17:08.425Z</time></trkpt><trkpt lat="42.4118103" lon="13.3435728"><ele>780.0</ele><time>2026-04-09T11:17:09.425Z</time></trkpt><trkpt lat="42.4117992" lon="13.3434829"><ele>780.0</ele><time>2026-04-09T11:17:10.425Z</time></trkpt><trkpt lat="42.4117943" lon="13.3433937"><ele>780.0</ele><time>2026-04-09T11:17:11.425Z</time></trkpt><trkpt lat="42.4117884" lon="13.3433014"><ele>779.8</ele><time>2026-04-09T11:17:12.425Z</time></trkpt><trkpt lat="42.4117786" lon="13.3431411"><ele>779.6</ele><time>2026-04-09T11:17:14.425Z</time></trkpt><trkpt lat="42.4117696" lon="13.3430126"><ele>779.4000000000001</ele><time>2026-04-09T11:17:16.425Z</time></trkpt><trkpt lat="42.4117481" lon="13.3428922"><ele>779.2</ele><time>2026-04-09T11:17:18.424Z</time></trkpt><trkpt lat="42.4117285" lon="13.3427249"><ele>779.0</ele><time>2026-04-09T11:17:20.425Z</time></trkpt><trkpt lat="42.4117244" lon="13.3426266"><ele>778.6</ele><time>2026-04-09T11:17:21.424Z</time></trkpt><trkpt lat="42.4117208" lon="13.3425319"><ele>778.2</ele><time>2026-04-09T11:17:22.425Z</time></trkpt><trkpt lat="42.4117207" lon="13.3424448"><ele>777.8000000000001</ele><time>2026-04-09T11:17:23.425Z</time></trkpt><trkpt lat="42.4117198" lon="13.3422848"><ele>777.4000000000001</ele><time>2026-04-09T11:17:25.425Z</time></trkpt><trkpt lat="42.4117077" lon="13.3421371"><ele>777.0</ele><time>2026-04-09T11:17:27.425Z</time></trkpt><trkpt lat="42.4116905" lon="13.3419658"><ele>776.5714285714286</ele><time>2026-04-09T11:17:29.425Z</time></trkpt><trkpt lat="42.4116792" lon="13.3418732"><ele>776.1428571428571</ele><time>2026-04-09T11:17:30.426Z</time></trkpt><trkpt lat="42.4116624" lon="13.3417851"><ele>775.7142857142858</ele><time>2026-04-09T11:17:31.424Z</time></trkpt><trkpt lat="42.4116486" lon="13.3416971"><ele>775.2857142857142</ele><time>2026-04-09T11:17:32.425Z</time></trkpt><trkpt lat="42.4116326" lon="13.3416001"><ele>774.8571428571429</ele><time>2026-04-09T11:17:33.425Z</time></trkpt><trkpt lat="42.4116231" lon="13.3414915"><ele>774.4285714285714</ele><time>2026-04-09T11:17:34.426Z</time></trkpt><trkpt lat="42.4116142" lon="13.341391"><ele>774.0</ele><time>2026-04-09T11:17:35.426Z</time></trkpt><trkpt lat="42.4116027" lon="13.341285"><ele>773.5</ele><time>2026-04-09T11:17:36.425Z</time></trkpt><trkpt lat="42.4115971" lon="13.3411785"><ele>773.0</ele><time>2026-04-09T11:17:37.425Z</time></trkpt><trkpt lat="42.41159" lon="13.3410835"><ele>772.5</ele><time>2026-04-09T11:17:38.425Z</time></trkpt><trkpt lat="42.4115788" lon="13.3409951"><ele>772.0</ele><time>2026-04-09T11:17:39.425Z</time></trkpt><trkpt lat="42.4115666" lon="13.3408985"><ele>771.5</ele><time>2026-04-09T11:17:40.425Z</time></trkpt><trkpt lat="42.4115673" lon="13.340806"><ele>771.0</ele><time>2026-04-09T11:17:41.425Z</time></trkpt><trkpt lat="42.4115785" lon="13.3406424"><ele>770.5999999999999</ele><time>2026-04-09T11:17:43.424Z</time></trkpt><trkpt lat="42.411595" lon="13.3404942"><ele>770.2</ele><time>2026-04-09T11:17:45.426Z</time></trkpt><trkpt lat="42.4115976" lon="13.3403541"><ele>769.8</ele><time>2026-04-09T11:17:47.425Z</time></trkpt><trkpt lat="42.4115666" lon="13.3401922"><ele>769.4000000000001</ele><time>2026-04-09T11:17:49.423Z</time></trkpt><trkpt lat="42.4115362" lon="13.3401103"><ele>769.0</ele><time>2026-04-09T11:17:50.424Z</time></trkpt><trkpt lat="42.4114697" lon="13.3399812"><ele>768.9999999999999</ele><time>2026-04-09T11:17:52.424Z</time></trkpt><trkpt lat="42.4114051" lon="13.339859"><ele>769.0</ele><time>2026-04-09T11:17:54.424Z</time></trkpt><trkpt lat="42.4113551" lon="13.3397069"><ele>769.0</ele><time>2026-04-09T11:17:56.424Z</time></trkpt><trkpt lat="42.4113373" lon="13.3396197"><ele>769.0</ele><time>2026-04-09T11:17:57.423Z</time></trkpt><trkpt lat="42.411319" lon="13.3395242"><ele>768.9999999999999</ele><time>2026-04-09T11:17:58.424Z</time></trkpt><trkpt lat="42.4113059" lon="13.3394333"><ele>769.0</ele><time>2026-04-09T11:17:59.425Z</time></trkpt><trkpt lat="42.4112902" lon="13.3393454"><ele>768.1428571428571</ele><time>2026-04-09T11:18:00.424Z</time></trkpt><trkpt lat="42.4112684" lon="13.3392621"><ele>767.2857142857143</ele><time>2026-04-09T11:18:01.425Z</time></trkpt><trkpt lat="42.4112516" lon="13.3391707"><ele>766.4285714285714</ele><time>2026-04-09T11:18:02.424Z</time></trkpt><trkpt lat="42.4112277" lon="13.3390822"><ele>765.5714285714286</ele><time>2026-04-09T11:18:03.423Z</time></trkpt><trkpt lat="42.4112078" lon="13.3389989"><ele>764.7142857142858</ele><time>2026-04-09T11:18:04.424Z</time></trkpt><trkpt lat="42.4111932" lon="13.3389124"><ele>763.8571428571429</ele><time>2026-04-09T11:18:05.424Z</time></trkpt><trkpt lat="42.4111742" lon="13.3388274"><ele>763.0</ele><time>2026-04-09T11:18:06.424Z</time></trkpt><trkpt lat="42.4111585" lon="13.3387371"><ele>762.5</ele><time>2026-04-09T11:18:07.424Z</time></trkpt><trkpt lat="42.4111494" lon="13.33865"><ele>762.0</ele><time>2026-04-09T11:18:08.424Z</time></trkpt><trkpt lat="42.4111364" lon="13.3385578"><ele>761.5</ele><time>2026-04-09T11:18:09.424Z</time></trkpt><trkpt lat="42.4111208" lon="13.3384658"><ele>761.0</ele><time>2026-04-09T11:18:10.424Z</time></trkpt><trkpt lat="42.4111077" lon="13.338372"><ele>760.5</ele><time>2026-04-09T11:18:11.425Z</time></trkpt><trkpt lat="42.4110917" lon="13.3382806"><ele>760.0</ele><time>2026-04-09T11:18:12.424Z</time></trkpt><trkpt lat="42.4110658" lon="13.3381218"><ele>759.6</ele><time>2026-04-09T11:18:14.424Z</time></trkpt><trkpt lat="42.4110438" lon="13.3379644"><ele>759.2</ele><time>2026-04-09T11:18:16.424Z</time></trkpt><trkpt lat="42.4110257" lon="13.3378312"><ele>758.8</ele><time>2026-04-09T11:18:18.425Z</time></trkpt><trkpt lat="42.4110093" lon="13.3377215"><ele>758.4</ele><time>2026-04-09T11:18:20.423Z</time></trkpt><trkpt lat="42.4109944" lon="13.3376295"><ele>758.0</ele><time>2026-04-09T11:18:22.424Z</time></trkpt><trkpt lat="42.4109803" lon="13.3375154"><ele>758.0</ele><time>2026-04-09T11:18:25.423Z</time></trkpt><trkpt lat="42.410978" lon="13.3373937"><ele>758.0</ele><time>2026-04-09T11:18:28.424Z</time></trkpt><trkpt lat="42.4109421" lon="13.3372559"><ele>758.0</ele><time>2026-04-09T11:18:30.424Z</time></trkpt><trkpt lat="42.4109125" lon="13.3370766"><ele>758.0</ele><time>2026-04-09T11:18:32.425Z</time></trkpt><trkpt lat="42.4108994" lon="13.3369791"><ele>758.0</ele><time>2026-04-09T11:18:33.424Z</time></trkpt><trkpt lat="42.4108929" lon="13.3368867"><ele>757.8333333333333</ele><time>2026-04-09T11:18:34.424Z</time></trkpt><trkpt lat="42.410888" lon="13.3367839"><ele>757.6666666666666</ele><time>2026-04-09T11:18:35.424Z</time></trkpt><trkpt lat="42.4108815" lon="13.3366685"><ele>757.5</ele><time>2026-04-09T11:18:36.424Z</time></trkpt><trkpt lat="42.4108722" lon="13.3365532"><ele>757.3333333333334</ele><time>2026-04-09T11:18:37.424Z</time></trkpt><trkpt lat="42.4108663" lon="13.3364431"><ele>757.1666666666667</ele><time>2026-04-09T11:18:38.423Z</time></trkpt><trkpt lat="42.4108674" lon="13.3363241"><ele>757.0</ele><time>2026-04-09T11:18:39.424Z</time></trkpt><trkpt lat="42.4108699" lon="13.3361997"><ele>757.0</ele><time>2026-04-09T11:18:40.425Z</time></trkpt><trkpt lat="42.4108698" lon="13.3360756"><ele>757.0</ele><time>2026-04-09T11:18:41.424Z</time></trkpt><trkpt lat="42.4108696" lon="13.3359562"><ele>757.0</ele><time>2026-04-09T11:18:42.424Z</time></trkpt><trkpt lat="42.4108684" lon="13.3358399"><ele>757.0</ele><time>2026-04-09T11:18:43.423Z</time></trkpt><trkpt lat="42.4108661" lon="13.3357256"><ele>757.0</ele><time>2026-04-09T11:18:44.424Z</time></trkpt><trkpt lat="42.4108576" lon="13.3356108"><ele>757.0</ele><time>2026-04-09T11:18:45.423Z</time></trkpt><trkpt lat="42.4108502" lon="13.3355013"><ele>756.8571428571429</ele><time>2026-04-09T11:18:46.424Z</time></trkpt><trkpt lat="42.4108472" lon="13.3353951"><ele>756.7142857142857</ele><time>2026-04-09T11:18:47.425Z</time></trkpt><trkpt lat="42.410848" lon="13.3353017"><ele>756.5714285714286</ele><time>2026-04-09T11:18:48.424Z</time></trkpt><trkpt lat="42.4108436" lon="13.3352128"><ele>756.4285714285714</ele><time>2026-04-09T11:18:49.424Z</time></trkpt><trkpt lat="42.4108548" lon="13.3351117"><ele>756.2857142857142</ele><time>2026-04-09T11:18:50.424Z</time></trkpt><trkpt lat="42.410869" lon="13.3350061"><ele>756.1428571428571</ele><time>2026-04-09T11:18:51.424Z</time></trkpt><trkpt lat="42.4108828" lon="13.3348978"><ele>756.0</ele><time>2026-04-09T11:18:52.423Z</time></trkpt><trkpt lat="42.4108971" lon="13.33479"><ele>755.6666666666666</ele><time>2026-04-09T11:18:53.424Z</time></trkpt><trkpt lat="42.4109151" lon="13.3346866"><ele>755.3333333333334</ele><time>2026-04-09T11:18:54.424Z</time></trkpt><trkpt lat="42.4109295" lon="13.3345847"><ele>755.0</ele><time>2026-04-09T11:18:55.424Z</time></trkpt><trkpt lat="42.4109387" lon="13.3344902"><ele>754.6666666666667</ele><time>2026-04-09T11:18:56.423Z</time></trkpt><trkpt lat="42.4109506" lon="13.3343976"><ele>754.3333333333334</ele><time>2026-04-09T11:18:57.424Z</time></trkpt><trkpt lat="42.4109627" lon="13.3342904"><ele>754.0</ele><time>2026-04-09T11:18:58.423Z</time></trkpt><trkpt lat="42.4109872" lon="13.33417"><ele>754.0</ele><time>2026-04-09T11:18:59.424Z</time></trkpt><trkpt lat="42.4110253" lon="13.3340463"><ele>754.0</ele><time>2026-04-09T11:19:00.424Z</time></trkpt><trkpt lat="42.4110668" lon="13.3339127"><ele>754.0</ele><time>2026-04-09T11:19:01.423Z</time></trkpt><trkpt lat="42.411118" lon="13.3337728"><ele>754.0</ele><time>2026-04-09T11:19:02.424Z</time></trkpt><trkpt lat="42.4111693" lon="13.3336447"><ele>754.0</ele><time>2026-04-09T11:19:03.424Z</time></trkpt><trkpt lat="42.4112171" lon="13.3335259"><ele>753.2</ele><time>2026-04-09T11:19:04.424Z</time></trkpt><trkpt lat="42.4112609" lon="13.3333989"><ele>752.4000000000001</ele><time>2026-04-09T11:19:05.424Z</time></trkpt><trkpt lat="42.4112985" lon="13.3332626"><ele>751.6</ele><time>2026-04-09T11:19:06.425Z</time></trkpt><trkpt lat="42.4113445" lon="13.3331292"><ele>750.8</ele><time>2026-04-09T11:19:07.423Z</time></trkpt><trkpt lat="42.4113915" lon="13.3329928"><ele>750.0</ele><time>2026-04-09T11:19:08.424Z</time></trkpt><trkpt lat="42.411442" lon="13.3328554"><ele>749.75</ele><time>2026-04-09T11:19:09.424Z</time></trkpt><trkpt lat="42.4114907" lon="13.3327083"><ele>749.5</ele><time>2026-04-09T11:19:10.424Z</time></trkpt><trkpt lat="42.4115402" lon="13.3325671"><ele>749.25</ele><time>2026-04-09T11:19:11.423Z</time></trkpt><trkpt lat="42.4115938" lon="13.3324351"><ele>749.0</ele><time>2026-04-09T11:19:12.423Z</time></trkpt><trkpt lat="42.4116536" lon="13.3323012"><ele>748.4000000000001</ele><time>2026-04-09T11:19:13.423Z</time></trkpt><trkpt lat="42.4117158" lon="13.3321665"><ele>747.8</ele><time>2026-04-09T11:19:14.423Z</time></trkpt><trkpt lat="42.4117809" lon="13.3320352"><ele>747.2</ele><time>2026-04-09T11:19:15.424Z</time></trkpt><trkpt lat="42.4118409" lon="13.331916"><ele>746.5999999999999</ele><time>2026-04-09T11:19:16.424Z</time></trkpt><trkpt lat="42.4118912" lon="13.3317978"><ele>746.0</ele><time>2026-04-09T11:19:17.424Z</time></trkpt><trkpt lat="42.4119417" lon="13.3316829"><ele>746.0</ele><time>2026-04-09T11:19:18.424Z</time></trkpt><trkpt lat="42.4119892" lon="13.331573"><ele>746.0</ele><time>2026-04-09T11:19:19.425Z</time></trkpt><trkpt lat="42.4120407" lon="13.3314514"><ele>746.0</ele><time>2026-04-09T11:19:20.423Z</time></trkpt><trkpt lat="42.4120905" lon="13.3313309"><ele>746.0</ele><time>2026-04-09T11:19:21.424Z</time></trkpt><trkpt lat="42.4121379" lon="13.3312282"><ele>746.0</ele><time>2026-04-09T11:19:22.424Z</time></trkpt><trkpt lat="42.4121878" lon="13.3311163"><ele>745.4</ele><time>2026-04-09T11:19:23.424Z</time></trkpt><trkpt lat="42.4122368" lon="13.3310004"><ele>744.8</ele><time>2026-04-09T11:19:24.424Z</time></trkpt><trkpt lat="42.4122891" lon="13.330882"><ele>744.1999999999999</ele><time>2026-04-09T11:19:25.424Z</time></trkpt><trkpt lat="42.4123292" lon="13.3307691"><ele>743.5999999999999</ele><time>2026-04-09T11:19:26.424Z</time></trkpt><trkpt lat="42.412365" lon="13.3306496"><ele>743.0</ele><time>2026-04-09T11:19:27.424Z</time></trkpt><trkpt lat="42.4123971" lon="13.330549"><ele>744.5</ele><time>2026-04-09T11:19:28.424Z</time></trkpt><trkpt lat="42.4124352" lon="13.3304624"><ele>746.0</ele><time>2026-04-09T11:19:29.423Z</time></trkpt><trkpt lat="42.4124825" lon="13.3303876"><ele>747.5</ele><time>2026-04-09T11:19:30.423Z</time></trkpt><trkpt lat="42.4125494" lon="13.3303159"><ele>749.0</ele><time>2026-04-09T11:19:31.425Z</time></trkpt><trkpt lat="42.4126232" lon="13.3302462"><ele>750.5</ele><time>2026-04-09T11:19:32.424Z</time></trkpt><trkpt lat="42.4126906" lon="13.3301515"><ele>752.0</ele><time>2026-04-09T11:19:33.423Z</time></trkpt><trkpt lat="42.4127593" lon="13.3300316"><ele>752.0</ele><time>2026-04-09T11:19:34.423Z</time></trkpt><trkpt lat="42.4128164" lon="13.3299081"><ele>752.0</ele><time>2026-04-09T11:19:35.424Z</time></trkpt><trkpt lat="42.4128734" lon="13.3297797"><ele>752.0</ele><time>2026-04-09T11:19:36.424Z</time></trkpt><trkpt lat="42.4129296" lon="13.3296609"><ele>752.0</ele><time>2026-04-09T11:19:37.425Z</time></trkpt><trkpt lat="42.4129996" lon="13.3295366"><ele>752.0</ele><time>2026-04-09T11:19:38.424Z</time></trkpt><trkpt lat="42.4130757" lon="13.3294142"><ele>750.8</ele><time>2026-04-09T11:19:39.424Z</time></trkpt><trkpt lat="42.4131313" lon="13.3292895"><ele>749.6</ele><time>2026-04-09T11:19:40.424Z</time></trkpt><trkpt lat="42.4131899" lon="13.3291747"><ele>748.4</ele><time>2026-04-09T11:19:41.424Z</time></trkpt><trkpt lat="42.4132538" lon="13.3290573"><ele>747.1999999999999</ele><time>2026-04-09T11:19:42.424Z</time></trkpt><trkpt lat="42.4133111" lon="13.3289403"><ele>746.0</ele><time>2026-04-09T11:19:43.423Z</time></trkpt><trkpt lat="42.4133699" lon="13.32886"><ele>746.0</ele><time>2026-04-09T11:19:44.424Z</time></trkpt><trkpt lat="42.4134219" lon="13.3287691"><ele>746.0</ele><time>2026-04-09T11:19:45.424Z</time></trkpt><trkpt lat="42.4134676" lon="13.3286885"><ele>746.0</ele><time>2026-04-09T11:19:46.423Z</time></trkpt><trkpt lat="42.4135122" lon="13.3286094"><ele>746.0</ele><time>2026-04-09T11:19:47.425Z</time></trkpt><trkpt lat="42.4135565" lon="13.3285178"><ele>746.0</ele><time>2026-04-09T11:19:48.423Z</time></trkpt><trkpt lat="42.4135982" lon="13.3284243"><ele>746.0</ele><time>2026-04-09T11:19:49.424Z</time></trkpt><trkpt lat="42.4136376" lon="13.328343"><ele>746.0</ele><time>2026-04-09T11:19:50.424Z</time></trkpt><trkpt lat="42.4136798" lon="13.3282566"><ele>746.0</ele><time>2026-04-09T11:19:51.424Z</time></trkpt><trkpt lat="42.4137219" lon="13.3281674"><ele>746.0</ele><time>2026-04-09T11:19:52.424Z</time></trkpt><trkpt lat="42.4137585" lon="13.3280751"><ele>746.0</ele><time>2026-04-09T11:19:53.424Z</time></trkpt><trkpt lat="42.4137922" lon="13.3279821"><ele>746.0</ele><time>2026-04-09T11:19:54.423Z</time></trkpt><trkpt lat="42.413819" lon="13.327891"><ele>746.0</ele><time>2026-04-09T11:19:55.424Z</time></trkpt><trkpt lat="42.4138401" lon="13.3278009"><ele>745.3333333333333</ele><time>2026-04-09T11:19:56.423Z</time></trkpt><trkpt lat="42.4138589" lon="13.3277048"><ele>744.6666666666666</ele><time>2026-04-09T11:19:57.424Z</time></trkpt><trkpt lat="42.4138775" lon="13.3276028"><ele>744.0</ele><time>2026-04-09T11:19:58.423Z</time></trkpt><trkpt lat="42.4138931" lon="13.327488"><ele>743.3333333333334</ele><time>2026-04-09T11:19:59.425Z</time></trkpt><trkpt lat="42.413908" lon="13.327375"><ele>742.6666666666667</ele><time>2026-04-09T11:20:00.424Z</time></trkpt><trkpt lat="42.4139141" lon="13.3272375"><ele>742.0</ele><time>2026-04-09T11:20:01.424Z</time></trkpt><trkpt lat="42.4139183" lon="13.3271194"><ele>742.0</ele><time>2026-04-09T11:20:02.424Z</time></trkpt><trkpt lat="42.4139279" lon="13.3269912"><ele>742.0</ele><time>2026-04-09T11:20:03.423Z</time></trkpt><trkpt lat="42.4139256" lon="13.3268621"><ele>742.0</ele><time>2026-04-09T11:20:04.423Z</time></trkpt><trkpt lat="42.4139076" lon="13.3267474"><ele>742.0</ele><time>2026-04-09T11:20:05.424Z</time></trkpt><trkpt lat="42.4138851" lon="13.3266339"><ele>742.0</ele><time>2026-04-09T11:20:06.424Z</time></trkpt><trkpt lat="42.4138419" lon="13.3265302"><ele>741.8333333333334</ele><time>2026-04-09T11:20:07.425Z</time></trkpt><trkpt lat="42.4137876" lon="13.3264514"><ele>741.6666666666667</ele><time>2026-04-09T11:20:08.423Z</time></trkpt><trkpt lat="42.4137217" lon="13.3264008"><ele>741.5</ele><time>2026-04-09T11:20:09.425Z</time></trkpt><trkpt lat="42.4136555" lon="13.3263671"><ele>741.3333333333334</ele><time>2026-04-09T11:20:10.424Z</time></trkpt><trkpt lat="42.4135819" lon="13.3263551"><ele>741.1666666666666</ele><time>2026-04-09T11:20:11.425Z</time></trkpt><trkpt lat="42.413504" lon="13.3263454"><ele>741.0</ele><time>2026-04-09T11:20:12.424Z</time></trkpt><trkpt lat="42.4134257" lon="13.3263113"><ele>741.0</ele><time>2026-04-09T11:20:13.424Z</time></trkpt><trkpt lat="42.4133542" lon="13.3262575"><ele>741.0</ele><time>2026-04-09T11:20:14.423Z</time></trkpt><trkpt lat="42.4132899" lon="13.3261888"><ele>741.0</ele><time>2026-04-09T11:20:15.424Z</time></trkpt><trkpt lat="42.4132258" lon="13.326123"><ele>741.0</ele><time>2026-04-09T11:20:16.424Z</time></trkpt><trkpt lat="42.413168" lon="13.3260491"><ele>741.0</ele><time>2026-04-09T11:20:17.424Z</time></trkpt><trkpt lat="42.4130938" lon="13.3259929"><ele>741.0</ele><time>2026-04-09T11:20:18.424Z</time></trkpt><trkpt lat="42.4130264" lon="13.3259391"><ele>740.8333333333334</ele><time>2026-04-09T11:20:19.424Z</time></trkpt><trkpt lat="42.4129717" lon="13.3258872"><ele>740.6666666666666</ele><time>2026-04-09T11:20:20.424Z</time></trkpt><trkpt lat="42.4129243" lon="13.3258293"><ele>740.5</ele><time>2026-04-09T11:20:21.424Z</time></trkpt><trkpt lat="42.4129103" lon="13.3257145"><ele>740.3333333333333</ele><time>2026-04-09T11:20:22.425Z</time></trkpt><trkpt lat="42.4128899" lon="13.3256101"><ele>740.1666666666666</ele><time>2026-04-09T11:20:23.423Z</time></trkpt><trkpt lat="42.4128656" lon="13.3254988"><ele>740.0</ele><time>2026-04-09T11:20:24.424Z</time></trkpt><trkpt lat="42.4128371" lon="13.3253782"><ele>738.8333333333333</ele><time>2026-04-09T11:20:25.424Z</time></trkpt><trkpt lat="42.4128041" lon="13.3252548"><ele>737.6666666666666</ele><time>2026-04-09T11:20:26.424Z</time></trkpt><trkpt lat="42.4127719" lon="13.3251414"><ele>736.5</ele><time>2026-04-09T11:20:27.423Z</time></trkpt><trkpt lat="42.4127478" lon="13.3250332"><ele>735.3333333333334</ele><time>2026-04-09T11:20:28.424Z</time></trkpt><trkpt lat="42.4127256" lon="13.3249515"><ele>734.1666666666667</ele><time>2026-04-09T11:20:29.424Z</time></trkpt><trkpt lat="42.412701" lon="13.3248431"><ele>733.0</ele><time>2026-04-09T11:20:31.424Z</time></trkpt><trkpt lat="42.4126809" lon="13.3247301"><ele>733.0</ele><time>2026-04-09T11:20:34.423Z</time></trkpt><trkpt lat="42.4126419" lon="13.3246163"><ele>733.0</ele><time>2026-04-09T11:20:36.424Z</time></trkpt><trkpt lat="42.4126147" lon="13.3244707"><ele>733.0</ele><time>2026-04-09T11:20:38.424Z</time></trkpt><trkpt lat="42.412602" lon="13.3243127"><ele>733.0</ele><time>2026-04-09T11:20:40.424Z</time></trkpt><trkpt lat="42.4125962" lon="13.3241599"><ele>733.0</ele><time>2026-04-09T11:20:42.424Z</time></trkpt><trkpt lat="42.4125573" lon="13.3239891"><ele>733.0</ele><time>2026-04-09T11:20:44.423Z</time></trkpt><trkpt lat="42.4125357" lon="13.3238875"><ele>733.0</ele><time>2026-04-09T11:20:45.424Z</time></trkpt><trkpt lat="42.4125093" lon="13.3237787"><ele>733.0</ele><time>2026-04-09T11:20:46.424Z</time></trkpt><trkpt lat="42.412486" lon="13.3236712"><ele>733.0</ele><time>2026-04-09T11:20:47.424Z</time></trkpt><trkpt lat="42.4124715" lon="13.3235787"><ele>733.0</ele><time>2026-04-09T11:20:48.424Z</time></trkpt><trkpt lat="42.4124527" lon="13.3234867"><ele>733.0</ele><time>2026-04-09T11:20:49.423Z</time></trkpt><trkpt lat="42.4124424" lon="13.3233378"><ele>733.0</ele><time>2026-04-09T11:20:51.424Z</time></trkpt><trkpt lat="42.4124318" lon="13.3232453"><ele>733.0</ele><time>2026-04-09T11:20:52.423Z</time></trkpt><trkpt lat="42.412421" lon="13.3231452"><ele>733.0</ele><time>2026-04-09T11:20:53.424Z</time></trkpt><trkpt lat="42.4124151" lon="13.3230322"><ele>733.0</ele><time>2026-04-09T11:20:54.424Z</time></trkpt><trkpt lat="42.4123873" lon="13.3228747"><ele>733.0</ele><time>2026-04-09T11:20:56.424Z</time></trkpt><trkpt lat="42.4123648" lon="13.322788"><ele>733.0</ele><time>2026-04-09T11:20:57.424Z</time></trkpt><trkpt lat="42.412348" lon="13.3226904"><ele>733.1428571428571</ele><time>2026-04-09T11:20:58.424Z</time></trkpt><trkpt lat="42.4123259" lon="13.3225977"><ele>733.2857142857142</ele><time>2026-04-09T11:20:59.424Z</time></trkpt><trkpt lat="42.4122949" lon="13.3225059"><ele>733.4285714285713</ele><time>2026-04-09T11:21:00.424Z</time></trkpt><trkpt lat="42.4122613" lon="13.3224253"><ele>733.5714285714286</ele><time>2026-04-09T11:21:01.424Z</time></trkpt><trkpt lat="42.4122486" lon="13.3223366"><ele>733.7142857142858</ele><time>2026-04-09T11:21:02.424Z</time></trkpt><trkpt lat="42.4122474" lon="13.322242"><ele>733.8571428571428</ele><time>2026-04-09T11:21:03.424Z</time></trkpt><trkpt lat="42.4122342" lon="13.3221355"><ele>734.0</ele><time>2026-04-09T11:21:04.424Z</time></trkpt><trkpt lat="42.4122238" lon="13.322025"><ele>733.3333333333333</ele><time>2026-04-09T11:21:05.423Z</time></trkpt><trkpt lat="42.4122117" lon="13.3219189"><ele>732.6666666666666</ele><time>2026-04-09T11:21:06.424Z</time></trkpt><trkpt lat="42.4122013" lon="13.3218168"><ele>732.0</ele><time>2026-04-09T11:21:07.424Z</time></trkpt><trkpt lat="42.4121864" lon="13.3217081"><ele>731.3333333333334</ele><time>2026-04-09T11:21:08.423Z</time></trkpt><trkpt lat="42.4121787" lon="13.3216011"><ele>730.6666666666667</ele><time>2026-04-09T11:21:09.424Z</time></trkpt><trkpt lat="42.4121727" lon="13.3215083"><ele>730.0</ele><time>2026-04-09T11:21:10.424Z</time></trkpt><trkpt lat="42.412168" lon="13.3214201"><ele>729.8571428571429</ele><time>2026-04-09T11:21:11.424Z</time></trkpt><trkpt lat="42.4121716" lon="13.3213275"><ele>729.7142857142858</ele><time>2026-04-09T11:21:12.424Z</time></trkpt><trkpt lat="42.412167" lon="13.3212308"><ele>729.5714285714287</ele><time>2026-04-09T11:21:13.423Z</time></trkpt><trkpt lat="42.4121633" lon="13.3211366"><ele>729.4285714285714</ele><time>2026-04-09T11:21:14.424Z</time></trkpt><trkpt lat="42.4121715" lon="13.3210403"><ele>729.2857142857142</ele><time>2026-04-09T11:21:15.424Z</time></trkpt><trkpt lat="42.4121746" lon="13.3209356"><ele>729.1428571428572</ele><time>2026-04-09T11:21:16.423Z</time></trkpt><trkpt lat="42.4121691" lon="13.3208385"><ele>729.0</ele><time>2026-04-09T11:21:17.424Z</time></trkpt><trkpt lat="42.412159" lon="13.3207417"><ele>728.0</ele><time>2026-04-09T11:21:18.424Z</time></trkpt><trkpt lat="42.4121062" lon="13.3206089"><ele>727.0</ele><time>2026-04-09T11:21:20.423Z</time></trkpt><trkpt lat="42.4120135" lon="13.3205802"><ele>726.0</ele><time>2026-04-09T11:21:22.424Z</time></trkpt><trkpt lat="42.411942" lon="13.3205772"><ele>725.0</ele><time>2026-04-09T11:21:23.424Z</time></trkpt><trkpt lat="42.4118653" lon="13.3205741"><ele>724.0</ele><time>2026-04-09T11:21:24.423Z</time></trkpt><trkpt lat="42.4117853" lon="13.3205612"><ele>723.0</ele><time>2026-04-09T11:21:25.424Z</time></trkpt><trkpt lat="42.4117025" lon="13.3205502"><ele>722.6666666666666</ele><time>2026-04-09T11:21:26.424Z</time></trkpt><trkpt lat="42.4116218" lon="13.3205406"><ele>722.3333333333334</ele><time>2026-04-09T11:21:27.424Z</time></trkpt><trkpt lat="42.4115382" lon="13.3205218"><ele>722.0</ele><time>2026-04-09T11:21:28.424Z</time></trkpt><trkpt lat="42.4114629" lon="13.3204967"><ele>721.6666666666667</ele><time>2026-04-09T11:21:29.424Z</time></trkpt><trkpt lat="42.4113854" lon="13.320472"><ele>721.3333333333334</ele><time>2026-04-09T11:21:30.423Z</time></trkpt><trkpt lat="42.41131" lon="13.3204509"><ele>721.0</ele><time>2026-04-09T11:21:31.424Z</time></trkpt><trkpt lat="42.4112378" lon="13.3204411"><ele>722.4285714285714</ele><time>2026-04-09T11:21:32.424Z</time></trkpt><trkpt lat="42.4111664" lon="13.320434"><ele>723.8571428571429</ele><time>2026-04-09T11:21:33.424Z</time></trkpt><trkpt lat="42.4110941" lon="13.3204365"><ele>725.2857142857142</ele><time>2026-04-09T11:21:34.424Z</time></trkpt><trkpt lat="42.4110252" lon="13.3204365"><ele>726.7142857142858</ele><time>2026-04-09T11:21:35.424Z</time></trkpt><trkpt lat="42.4109556" lon="13.3204568"><ele>728.1428571428571</ele><time>2026-04-09T11:21:36.425Z</time></trkpt><trkpt lat="42.4108825" lon="13.3204681"><ele>729.5714285714286</ele><time>2026-04-09T11:21:37.424Z</time></trkpt><trkpt lat="42.4108123" lon="13.3204855"><ele>731.0</ele><time>2026-04-09T11:21:38.424Z</time></trkpt><trkpt lat="42.4107396" lon="13.3205065"><ele>731.0</ele><time>2026-04-09T11:21:39.424Z</time></trkpt><trkpt lat="42.4106647" lon="13.3205227"><ele>731.0</ele><time>2026-04-09T11:21:40.424Z</time></trkpt><trkpt lat="42.410591" lon="13.3205305"><ele>731.0</ele><time>2026-04-09T11:21:41.423Z</time></trkpt><trkpt lat="42.4105174" lon="13.3205371"><ele>731.0</ele><time>2026-04-09T11:21:42.424Z</time></trkpt><trkpt lat="42.4104483" lon="13.3205434"><ele>731.0</ele><time>2026-04-09T11:21:43.424Z</time></trkpt><trkpt lat="42.4103764" lon="13.3205498"><ele>731.0</ele><time>2026-04-09T11:21:44.423Z</time></trkpt><trkpt lat="42.4103061" lon="13.320555"><ele>731.0</ele><time>2026-04-09T11:21:45.423Z</time></trkpt><trkpt lat="42.4102299" lon="13.3205665"><ele>731.0</ele><time>2026-04-09T11:21:46.424Z</time></trkpt><trkpt lat="42.4101621" lon="13.3205812"><ele>731.0</ele><time>2026-04-09T11:21:47.424Z</time></trkpt><trkpt lat="42.4100894" lon="13.3205942"><ele>731.0</ele><time>2026-04-09T11:21:48.424Z</time></trkpt><trkpt lat="42.4100244" lon="13.3206095"><ele>731.0</ele><time>2026-04-09T11:21:49.424Z</time></trkpt><trkpt lat="42.4099524" lon="13.3206271"><ele>731.0</ele><time>2026-04-09T11:21:50.425Z</time></trkpt><trkpt lat="42.409876" lon="13.3206416"><ele>731.0</ele><time>2026-04-09T11:21:51.423Z</time></trkpt><trkpt lat="42.4097976" lon="13.320651"><ele>731.0</ele><time>2026-04-09T11:21:52.424Z</time></trkpt><trkpt lat="42.4097238" lon="13.3206715"><ele>730.6666666666666</ele><time>2026-04-09T11:21:53.424Z</time></trkpt><trkpt lat="42.4096526" lon="13.3206859"><ele>730.3333333333333</ele><time>2026-04-09T11:21:54.424Z</time></trkpt><trkpt lat="42.4095346" lon="13.3207144"><ele>730.0</ele><time>2026-04-09T11:21:56.424Z</time></trkpt><trkpt lat="42.4094711" lon="13.3207234"><ele>729.6666666666666</ele><time>2026-04-09T11:21:57.424Z</time></trkpt><trkpt lat="42.4094035" lon="13.3207238"><ele>729.3333333333334</ele><time>2026-04-09T11:21:58.423Z</time></trkpt><trkpt lat="42.4093351" lon="13.3207182"><ele>729.0</ele><time>2026-04-09T11:21:59.424Z</time></trkpt><trkpt lat="42.4092641" lon="13.3207188"><ele>729.0</ele><time>2026-04-09T11:22:00.423Z</time></trkpt><trkpt lat="42.4091887" lon="13.3207192"><ele>729.0</ele><time>2026-04-09T11:22:01.424Z</time></trkpt><trkpt lat="42.4091251" lon="13.3207199"><ele>729.0</ele><time>2026-04-09T11:22:02.423Z</time></trkpt><trkpt lat="42.4090597" lon="13.3207204"><ele>729.0</ele><time>2026-04-09T11:22:03.424Z</time></trkpt><trkpt lat="42.4089927" lon="13.3207209"><ele>729.0</ele><time>2026-04-09T11:22:04.424Z</time></trkpt><trkpt lat="42.4089262" lon="13.320717"><ele>729.0</ele><time>2026-04-09T11:22:05.424Z</time></trkpt><trkpt lat="42.4088599" lon="13.3207125"><ele>729.0</ele><time>2026-04-09T11:22:06.424Z</time></trkpt><trkpt lat="42.4087495" lon="13.3207018"><ele>728.4000000000001</ele><time>2026-04-09T11:22:08.424Z</time></trkpt><trkpt lat="42.4086482" lon="13.3207044"><ele>727.8</ele><time>2026-04-09T11:22:10.424Z</time></trkpt><trkpt lat="42.4085341" lon="13.3206841"><ele>727.2</ele><time>2026-04-09T11:22:12.424Z</time></trkpt><trkpt lat="42.4084106" lon="13.3206694"><ele>726.5999999999999</ele><time>2026-04-09T11:22:14.424Z</time></trkpt><trkpt lat="42.4083444" lon="13.32067"><ele>726.0</ele><time>2026-04-09T11:22:15.424Z</time></trkpt><trkpt lat="42.4082785" lon="13.3206729"><ele>725.9999999999999</ele><time>2026-04-09T11:22:16.424Z</time></trkpt><trkpt lat="42.4082135" lon="13.3206753"><ele>726.0</ele><time>2026-04-09T11:22:17.424Z</time></trkpt><trkpt lat="42.4081496" lon="13.3206746"><ele>726.0</ele><time>2026-04-09T11:22:18.424Z</time></trkpt><trkpt lat="42.4080841" lon="13.320674"><ele>726.0</ele><time>2026-04-09T11:22:19.424Z</time></trkpt><trkpt lat="42.408021" lon="13.3206831"><ele>726.0</ele><time>2026-04-09T11:22:20.424Z</time></trkpt><trkpt lat="42.4079573" lon="13.3206907"><ele>725.9999999999999</ele><time>2026-04-09T11:22:21.423Z</time></trkpt><trkpt lat="42.4078915" lon="13.3206967"><ele>726.0</ele><time>2026-04-09T11:22:22.423Z</time></trkpt><trkpt lat="42.4078269" lon="13.3206998"><ele>726.0</ele><time>2026-04-09T11:22:23.423Z</time></trkpt><trkpt lat="42.4077619" lon="13.3207053"><ele>726.0</ele><time>2026-04-09T11:22:24.424Z</time></trkpt><trkpt lat="42.4076967" lon="13.3207041"><ele>726.0</ele><time>2026-04-09T11:22:25.424Z</time></trkpt><trkpt lat="42.407582" lon="13.3207322"><ele>726.0</ele><time>2026-04-09T11:22:27.424Z</time></trkpt><trkpt lat="42.4074778" lon="13.3207421"><ele>726.0</ele><time>2026-04-09T11:22:29.424Z</time></trkpt><trkpt lat="42.4073678" lon="13.3207761"><ele>726.0</ele><time>2026-04-09T11:22:31.424Z</time></trkpt><trkpt lat="42.4072699" lon="13.3208231"><ele>726.0</ele><time>2026-04-09T11:22:33.424Z</time></trkpt><trkpt lat="42.4071666" lon="13.3208315"><ele>726.0</ele><time>2026-04-09T11:22:35.423Z</time></trkpt><trkpt lat="42.4070484" lon="13.3208611"><ele>726.0</ele><time>2026-04-09T11:22:37.424Z</time></trkpt><trkpt lat="42.4069802" lon="13.3208793"><ele>726.0</ele><time>2026-04-09T11:22:38.424Z</time></trkpt><trkpt lat="42.4069087" lon="13.3209002"><ele>725.4285714285713</ele><time>2026-04-09T11:22:39.424Z</time></trkpt><trkpt lat="42.4068426" lon="13.3209163"><ele>724.8571428571429</ele><time>2026-04-09T11:22:40.424Z</time></trkpt><trkpt lat="42.4067757" lon="13.320935"><ele>724.2857142857142</ele><time>2026-04-09T11:22:41.423Z</time></trkpt><trkpt lat="42.4067027" lon="13.3209547"><ele>723.7142857142857</ele><time>2026-04-09T11:22:42.423Z</time></trkpt><trkpt lat="42.406625" lon="13.3209733"><ele>723.1428571428571</ele><time>2026-04-09T11:22:43.423Z</time></trkpt><trkpt lat="42.4065502" lon="13.3209874"><ele>722.5714285714286</ele><time>2026-04-09T11:22:44.423Z</time></trkpt><trkpt lat="42.4064865" lon="13.3210029"><ele>722.0</ele><time>2026-04-09T11:22:45.424Z</time></trkpt><trkpt lat="42.4064182" lon="13.3210191"><ele>722.0</ele><time>2026-04-09T11:22:46.423Z</time></trkpt><trkpt lat="42.4063509" lon="13.3210275"><ele>722.0</ele><time>2026-04-09T11:22:47.424Z</time></trkpt><trkpt lat="42.4062816" lon="13.3210311"><ele>722.0</ele><time>2026-04-09T11:22:48.423Z</time></trkpt><trkpt lat="42.4062143" lon="13.3210361"><ele>722.0</ele><time>2026-04-09T11:22:49.424Z</time></trkpt><trkpt lat="42.4060896" lon="13.3210421"><ele>722.0</ele><time>2026-04-09T11:22:51.424Z</time></trkpt><trkpt lat="42.4060238" lon="13.3210449"><ele>722.0</ele><time>2026-04-09T11:22:52.423Z</time></trkpt><trkpt lat="42.4059575" lon="13.3210474"><ele>722.1428571428572</ele><time>2026-04-09T11:22:53.424Z</time></trkpt><trkpt lat="42.4058854" lon="13.3210545"><ele>722.2857142857142</ele><time>2026-04-09T11:22:54.423Z</time></trkpt><trkpt lat="42.4058101" lon="13.3210513"><ele>722.4285714285714</ele><time>2026-04-09T11:22:55.423Z</time></trkpt><trkpt lat="42.4057415" lon="13.3210447"><ele>722.5714285714287</ele><time>2026-04-09T11:22:56.423Z</time></trkpt><trkpt lat="42.4056781" lon="13.3210371"><ele>722.7142857142858</ele><time>2026-04-09T11:22:57.422Z</time></trkpt><trkpt lat="42.4056073" lon="13.3210193"><ele>722.8571428571429</ele><time>2026-04-09T11:22:58.423Z</time></trkpt><trkpt lat="42.405541" lon="13.321008"><ele>723.0</ele><time>2026-04-09T11:22:59.423Z</time></trkpt><trkpt lat="42.4054765" lon="13.3210009"><ele>721.8333333333334</ele><time>2026-04-09T11:23:00.423Z</time></trkpt><trkpt lat="42.4053572" lon="13.3209953"><ele>720.6666666666666</ele><time>2026-04-09T11:23:02.423Z</time></trkpt><trkpt lat="42.4052368" lon="13.3209872"><ele>719.5</ele><time>2026-04-09T11:23:04.423Z</time></trkpt><trkpt lat="42.4051721" lon="13.3209845"><ele>718.3333333333333</ele><time>2026-04-09T11:23:05.423Z</time></trkpt><trkpt lat="42.4051031" lon="13.3209853"><ele>717.1666666666666</ele><time>2026-04-09T11:23:06.423Z</time></trkpt><trkpt lat="42.40504" lon="13.3209864"><ele>716.0</ele><time>2026-04-09T11:23:07.423Z</time></trkpt><trkpt lat="42.4049741" lon="13.3209902"><ele>716.0000000000001</ele><time>2026-04-09T11:23:08.422Z</time></trkpt><trkpt lat="42.4049057" lon="13.3209961"><ele>716.0</ele><time>2026-04-09T11:23:09.423Z</time></trkpt><trkpt lat="42.4048386" lon="13.3210013"><ele>716.0</ele><time>2026-04-09T11:23:10.423Z</time></trkpt><trkpt lat="42.4047693" lon="13.3210055"><ele>716.0</ele><time>2026-04-09T11:23:11.423Z</time></trkpt><trkpt lat="42.4046918" lon="13.3210078"><ele>716.0</ele><time>2026-04-09T11:23:12.423Z</time></trkpt><trkpt lat="42.4046135" lon="13.3210074"><ele>716.0000000000001</ele><time>2026-04-09T11:23:13.423Z</time></trkpt><trkpt lat="42.4045367" lon="13.3210033"><ele>716.0</ele><time>2026-04-09T11:23:14.423Z</time></trkpt><trkpt lat="42.4044635" lon="13.3209975"><ele>715.3333333333333</ele><time>2026-04-09T11:23:15.422Z</time></trkpt><trkpt lat="42.4043874" lon="13.3209901"><ele>714.6666666666666</ele><time>2026-04-09T11:23:16.423Z</time></trkpt><trkpt lat="42.4043117" lon="13.3209809"><ele>714.0</ele><time>2026-04-09T11:23:17.423Z</time></trkpt><trkpt lat="42.4042342" lon="13.3209705"><ele>713.3333333333334</ele><time>2026-04-09T11:23:18.423Z</time></trkpt><trkpt lat="42.4041593" lon="13.3209599"><ele>712.6666666666667</ele><time>2026-04-09T11:23:19.422Z</time></trkpt><trkpt lat="42.4040824" lon="13.3209508"><ele>712.0</ele><time>2026-04-09T11:23:20.423Z</time></trkpt><trkpt lat="42.4040125" lon="13.3209376"><ele>711.9999999999999</ele><time>2026-04-09T11:23:21.422Z</time></trkpt><trkpt lat="42.4039476" lon="13.32092"><ele>712.0</ele><time>2026-04-09T11:23:22.423Z</time></trkpt><trkpt lat="42.4038797" lon="13.3209012"><ele>712.0</ele><time>2026-04-09T11:23:23.423Z</time></trkpt><trkpt lat="42.4038139" lon="13.3208808"><ele>712.0</ele><time>2026-04-09T11:23:24.422Z</time></trkpt><trkpt lat="42.4037437" lon="13.3208566"><ele>712.0</ele><time>2026-04-09T11:23:25.423Z</time></trkpt><trkpt lat="42.4036707" lon="13.3208338"><ele>711.9999999999999</ele><time>2026-04-09T11:23:26.423Z</time></trkpt><trkpt lat="42.4035996" lon="13.3208123"><ele>712.0</ele><time>2026-04-09T11:23:27.423Z</time></trkpt><trkpt lat="42.4035351" lon="13.3207909"><ele>711.7142857142857</ele><time>2026-04-09T11:23:28.423Z</time></trkpt><trkpt lat="42.4034676" lon="13.3207724"><ele>711.4285714285714</ele><time>2026-04-09T11:23:29.423Z</time></trkpt><trkpt lat="42.4034" lon="13.3207509"><ele>711.1428571428571</ele><time>2026-04-09T11:23:30.422Z</time></trkpt><trkpt lat="42.403328" lon="13.3207345"><ele>710.8571428571429</ele><time>2026-04-09T11:23:31.423Z</time></trkpt><trkpt lat="42.4032582" lon="13.320715"><ele>710.5714285714286</ele><time>2026-04-09T11:23:32.423Z</time></trkpt><trkpt lat="42.4031949" lon="13.3207057"><ele>710.2857142857142</ele><time>2026-04-09T11:23:33.423Z</time></trkpt><trkpt lat="42.4031288" lon="13.320705"><ele>710.0</ele><time>2026-04-09T11:23:34.423Z</time></trkpt><trkpt lat="42.4030602" lon="13.3206992"><ele>709.4285714285714</ele><time>2026-04-09T11:23:35.423Z</time></trkpt><trkpt lat="42.40299" lon="13.320694"><ele>708.8571428571429</ele><time>2026-04-09T11:23:36.423Z</time></trkpt><trkpt lat="42.4029161" lon="13.3206882"><ele>708.2857142857142</ele><time>2026-04-09T11:23:37.423Z</time></trkpt><trkpt lat="42.4028431" lon="13.3206772"><ele>707.7142857142858</ele><time>2026-04-09T11:23:38.423Z</time></trkpt><trkpt lat="42.4027695" lon="13.3206556"><ele>707.1428571428572</ele><time>2026-04-09T11:23:39.422Z</time></trkpt><trkpt lat="42.4026999" lon="13.3206358"><ele>706.5714285714286</ele><time>2026-04-09T11:23:40.423Z</time></trkpt><trkpt lat="42.4026324" lon="13.3206093"><ele>706.0</ele><time>2026-04-09T11:23:41.423Z</time></trkpt><trkpt lat="42.4025611" lon="13.3205748"><ele>706.0</ele><time>2026-04-09T11:23:42.422Z</time></trkpt><trkpt lat="42.4024907" lon="13.3205347"><ele>706.0</ele><time>2026-04-09T11:23:43.423Z</time></trkpt><trkpt lat="42.4024268" lon="13.3204951"><ele>706.0</ele><time>2026-04-09T11:23:44.422Z</time></trkpt><trkpt lat="42.4023599" lon="13.3204554"><ele>706.0</ele><time>2026-04-09T11:23:45.422Z</time></trkpt><trkpt lat="42.402292" lon="13.3204165"><ele>706.0</ele><time>2026-04-09T11:23:46.422Z</time></trkpt><trkpt lat="42.4022223" lon="13.3203811"><ele>706.0</ele><time>2026-04-09T11:23:47.423Z</time></trkpt><trkpt lat="42.4021499" lon="13.3203579"><ele>706.0</ele><time>2026-04-09T11:23:48.423Z</time></trkpt><trkpt lat="42.4020762" lon="13.3203342"><ele>705.5999999999999</ele><time>2026-04-09T11:23:49.423Z</time></trkpt><trkpt lat="42.4020068" lon="13.3203167"><ele>705.2</ele><time>2026-04-09T11:23:50.423Z</time></trkpt><trkpt lat="42.4019405" lon="13.3202939"><ele>704.8</ele><time>2026-04-09T11:23:51.423Z</time></trkpt><trkpt lat="42.4018338" lon="13.3202502"><ele>704.4000000000001</ele><time>2026-04-09T11:23:53.423Z</time></trkpt><trkpt lat="42.4017221" lon="13.3202096"><ele>704.0</ele><time>2026-04-09T11:23:55.423Z</time></trkpt><trkpt lat="42.4016207" lon="13.3201622"><ele>704.0</ele><time>2026-04-09T11:23:57.423Z</time></trkpt><trkpt lat="42.401541" lon="13.3201207"><ele>704.0</ele><time>2026-04-09T11:23:59.423Z</time></trkpt><trkpt lat="42.4014714" lon="13.3201316"><ele>704.0</ele><time>2026-04-09T11:24:23.423Z</time></trkpt><trkpt lat="42.4014888" lon="13.3202349"><ele>704.0</ele><time>2026-04-09T11:24:26.423Z</time></trkpt><trkpt lat="42.4015253" lon="13.3203648"><ele>704.0</ele><time>2026-04-09T11:24:28.423Z</time></trkpt><trkpt lat="42.4015479" lon="13.3204471"><ele>704.0</ele><time>2026-04-09T11:24:29.423Z</time></trkpt><trkpt lat="42.401569" lon="13.3205285"><ele>703.1666666666666</ele><time>2026-04-09T11:24:30.423Z</time></trkpt><trkpt lat="42.4015902" lon="13.3206141"><ele>702.3333333333333</ele><time>2026-04-09T11:24:31.423Z</time></trkpt><trkpt lat="42.4016165" lon="13.3207567"><ele>701.5</ele><time>2026-04-09T11:24:33.423Z</time></trkpt><trkpt lat="42.401637" lon="13.3209006"><ele>700.6666666666666</ele><time>2026-04-09T11:24:35.423Z</time></trkpt><trkpt lat="42.4016556" lon="13.3209977"><ele>699.8333333333334</ele><time>2026-04-09T11:24:36.423Z</time></trkpt><trkpt lat="42.4016726" lon="13.3210879"><ele>699.0</ele><time>2026-04-09T11:24:37.423Z</time></trkpt><trkpt lat="42.4016866" lon="13.3211719"><ele>699.0</ele><time>2026-04-09T11:24:38.422Z</time></trkpt><trkpt lat="42.4017038" lon="13.3212588"><ele>699.0</ele><time>2026-04-09T11:24:39.424Z</time></trkpt><trkpt lat="42.4017152" lon="13.3213486"><ele>699.0</ele><time>2026-04-09T11:24:40.423Z</time></trkpt><trkpt lat="42.4017321" lon="13.3214375"><ele>699.0</ele><time>2026-04-09T11:24:41.423Z</time></trkpt><trkpt lat="42.401747" lon="13.3215283"><ele>699.0</ele><time>2026-04-09T11:24:42.423Z</time></trkpt><trkpt lat="42.4017649" lon="13.3216152"><ele>699.0</ele><time>2026-04-09T11:24:43.423Z</time></trkpt><trkpt lat="42.4017772" lon="13.3216994"><ele>699.0</ele><time>2026-04-09T11:24:44.423Z</time></trkpt><trkpt lat="42.4017873" lon="13.3217874"><ele>699.2857142857142</ele><time>2026-04-09T11:24:45.423Z</time></trkpt><trkpt lat="42.4017989" lon="13.3218767"><ele>699.5714285714287</ele><time>2026-04-09T11:24:46.422Z</time></trkpt><trkpt lat="42.4018016" lon="13.3219667"><ele>699.8571428571429</ele><time>2026-04-09T11:24:47.423Z</time></trkpt><trkpt lat="42.40181" lon="13.3220551"><ele>700.1428571428571</ele><time>2026-04-09T11:24:48.423Z</time></trkpt><trkpt lat="42.4018157" lon="13.3221527"><ele>700.4285714285713</ele><time>2026-04-09T11:24:49.423Z</time></trkpt><trkpt lat="42.4018217" lon="13.322245"><ele>700.7142857142858</ele><time>2026-04-09T11:24:50.423Z</time></trkpt><trkpt lat="42.4018247" lon="13.3223365"><ele>701.0</ele><time>2026-04-09T11:24:51.422Z</time></trkpt><trkpt lat="42.401831" lon="13.3224285"><ele>701.6666666666666</ele><time>2026-04-09T11:24:52.423Z</time></trkpt><trkpt lat="42.4018398" lon="13.3225197"><ele>702.3333333333333</ele><time>2026-04-09T11:24:53.423Z</time></trkpt><trkpt lat="42.4018496" lon="13.3226068"><ele>703.0</ele><time>2026-04-09T11:24:54.423Z</time></trkpt><trkpt lat="42.4018573" lon="13.322695"><ele>703.6666666666666</ele><time>2026-04-09T11:24:55.423Z</time></trkpt><trkpt lat="42.4018776" lon="13.3228641"><ele>704.3333333333334</ele><time>2026-04-09T11:24:57.423Z</time></trkpt><trkpt lat="42.4018983" lon="13.3230227"><ele>705.0</ele><time>2026-04-09T11:24:59.422Z</time></trkpt><trkpt lat="42.4019143" lon="13.3231068"><ele>707.0</ele><time>2026-04-09T11:25:00.424Z</time></trkpt><trkpt lat="42.4019374" lon="13.3231881"><ele>709.0</ele><time>2026-04-09T11:25:01.423Z</time></trkpt><trkpt lat="42.4019927" lon="13.3233261"><ele>711.0</ele><time>2026-04-09T11:25:03.422Z</time></trkpt><trkpt lat="42.4020524" lon="13.3234591"><ele>713.0</ele><time>2026-04-09T11:25:05.423Z</time></trkpt><trkpt lat="42.4021194" lon="13.3236084"><ele>715.0</ele><time>2026-04-09T11:25:07.422Z</time></trkpt><trkpt lat="42.4021384" lon="13.3236973"><ele>715.0</ele><time>2026-04-09T11:25:08.423Z</time></trkpt><trkpt lat="42.4021393" lon="13.323786"><ele>715.0</ele><time>2026-04-09T11:25:09.423Z</time></trkpt><trkpt lat="42.4021361" lon="13.3238732"><ele>715.0</ele><time>2026-04-09T11:25:10.423Z</time></trkpt><trkpt lat="42.4021386" lon="13.3239603"><ele>715.0</ele><time>2026-04-09T11:25:11.422Z</time></trkpt><trkpt lat="42.4021482" lon="13.3241365"><ele>715.0</ele><time>2026-04-09T11:25:13.423Z</time></trkpt><trkpt lat="42.4021645" lon="13.3242227"><ele>715.0</ele><time>2026-04-09T11:25:14.423Z</time></trkpt><trkpt lat="42.4022019" lon="13.3243802"><ele>715.2</ele><time>2026-04-09T11:25:16.423Z</time></trkpt><trkpt lat="42.4022259" lon="13.3245449"><ele>715.4</ele><time>2026-04-09T11:25:18.422Z</time></trkpt><trkpt lat="42.4022181" lon="13.32463"><ele>715.5999999999999</ele><time>2026-04-09T11:25:19.423Z</time></trkpt><trkpt lat="42.4022336" lon="13.3247936"><ele>715.8</ele><time>2026-04-09T11:25:21.423Z</time></trkpt><trkpt lat="42.4022577" lon="13.3248785"><ele>716.0</ele><time>2026-04-09T11:25:22.423Z</time></trkpt><trkpt lat="42.4022696" lon="13.3250482"><ele>717.3333333333333</ele><time>2026-04-09T11:25:24.423Z</time></trkpt><trkpt lat="42.4022618" lon="13.3251421"><ele>718.6666666666666</ele><time>2026-04-09T11:25:25.423Z</time></trkpt><trkpt lat="42.402258" lon="13.3252316"><ele>720.0</ele><time>2026-04-09T11:25:26.423Z</time></trkpt><trkpt lat="42.4022542" lon="13.3253291"><ele>721.3333333333334</ele><time>2026-04-09T11:25:27.423Z</time></trkpt><trkpt lat="42.4022503" lon="13.3254222"><ele>722.6666666666667</ele><time>2026-04-09T11:25:28.423Z</time></trkpt><trkpt lat="42.4022416" lon="13.3255145"><ele>724.0</ele><time>2026-04-09T11:25:29.423Z</time></trkpt><trkpt lat="42.4022307" lon="13.3256998"><ele>725.5</ele><time>2026-04-09T11:25:31.422Z</time></trkpt><trkpt lat="42.4022266" lon="13.32579"><ele>727.0</ele><time>2026-04-09T11:25:32.423Z</time></trkpt><trkpt lat="42.4022217" lon="13.3258766"><ele>728.5</ele><time>2026-04-09T11:25:33.423Z</time></trkpt><trkpt lat="42.4022194" lon="13.3259639"><ele>730.0</ele><time>2026-04-09T11:25:34.423Z</time></trkpt><trkpt lat="42.4022261" lon="13.3261325"><ele>731.5</ele><time>2026-04-09T11:25:36.423Z</time></trkpt><trkpt lat="42.4022517" lon="13.3262901"><ele>733.0</ele><time>2026-04-09T11:25:38.423Z</time></trkpt><trkpt lat="42.4023044" lon="13.3263664"><ele>734.2857142857142</ele><time>2026-04-09T11:25:39.422Z</time></trkpt><trkpt lat="42.4023219" lon="13.3264563"><ele>735.5714285714286</ele><time>2026-04-09T11:25:40.422Z</time></trkpt><trkpt lat="42.402332" lon="13.3265474"><ele>736.8571428571429</ele><time>2026-04-09T11:25:41.422Z</time></trkpt><trkpt lat="42.4023305" lon="13.3266444"><ele>738.1428571428571</ele><time>2026-04-09T11:25:42.422Z</time></trkpt><trkpt lat="42.4023348" lon="13.3267408"><ele>739.4285714285714</ele><time>2026-04-09T11:25:43.423Z</time></trkpt><trkpt lat="42.4023287" lon="13.3268283"><ele>740.7142857142857</ele><time>2026-04-09T11:25:44.422Z</time></trkpt><trkpt lat="42.4023286" lon="13.3269241"><ele>742.0</ele><time>2026-04-09T11:25:45.424Z</time></trkpt><trkpt lat="42.4023306" lon="13.3270186"><ele>742.0</ele><time>2026-04-09T11:25:46.423Z</time></trkpt><trkpt lat="42.4023439" lon="13.3271079"><ele>742.0</ele><time>2026-04-09T11:25:47.422Z</time></trkpt><trkpt lat="42.4023645" lon="13.3271926"><ele>742.0</ele><time>2026-04-09T11:25:48.423Z</time></trkpt><trkpt lat="42.4023872" lon="13.3272762"><ele>742.0</ele><time>2026-04-09T11:25:49.423Z</time></trkpt><trkpt lat="42.4024062" lon="13.3273589"><ele>742.0</ele><time>2026-04-09T11:25:50.423Z</time></trkpt><trkpt lat="42.4024312" lon="13.3274383"><ele>742.0</ele><time>2026-04-09T11:25:51.423Z</time></trkpt><trkpt lat="42.4024482" lon="13.3275247"><ele>742.0</ele><time>2026-04-09T11:25:52.423Z</time></trkpt><trkpt lat="42.4024564" lon="13.3276131"><ele>743.3333333333334</ele><time>2026-04-09T11:25:53.423Z</time></trkpt><trkpt lat="42.4024659" lon="13.3277065"><ele>744.6666666666667</ele><time>2026-04-09T11:25:54.423Z</time></trkpt><trkpt lat="42.4024704" lon="13.3278056"><ele>746.0</ele><time>2026-04-09T11:25:55.424Z</time></trkpt><trkpt lat="42.4024668" lon="13.3278965"><ele>747.3333333333334</ele><time>2026-04-09T11:25:56.423Z</time></trkpt><trkpt lat="42.4024061" lon="13.3280427"><ele>748.6666666666666</ele><time>2026-04-09T11:25:58.422Z</time></trkpt><trkpt lat="42.4023725" lon="13.3281157"><ele>750.0</ele><time>2026-04-09T11:25:59.423Z</time></trkpt><trkpt lat="42.4023117" lon="13.3281506"><ele>750.8333333333334</ele><time>2026-04-09T11:26:00.424Z</time></trkpt><trkpt lat="42.4022279" lon="13.3282736"><ele>751.6666666666666</ele><time>2026-04-09T11:26:02.423Z</time></trkpt><trkpt lat="42.402178" lon="13.3284136"><ele>752.5</ele><time>2026-04-09T11:26:04.423Z</time></trkpt><trkpt lat="42.4021661" lon="13.3285063"><ele>753.3333333333333</ele><time>2026-04-09T11:26:05.423Z</time></trkpt><trkpt lat="42.4021446" lon="13.3285967"><ele>754.1666666666666</ele><time>2026-04-09T11:26:06.422Z</time></trkpt><trkpt lat="42.4021272" lon="13.3286879"><ele>755.0</ele><time>2026-04-09T11:26:07.423Z</time></trkpt><trkpt lat="42.4021125" lon="13.3287807"><ele>757.0</ele><time>2026-04-09T11:26:08.423Z</time></trkpt><trkpt lat="42.4020993" lon="13.3288723"><ele>759.0</ele><time>2026-04-09T11:26:09.422Z</time></trkpt><trkpt lat="42.402081" lon="13.3289662"><ele>761.0</ele><time>2026-04-09T11:26:10.424Z</time></trkpt><trkpt lat="42.4020651" lon="13.3290565"><ele>763.0</ele><time>2026-04-09T11:26:11.423Z</time></trkpt><trkpt lat="42.4020428" lon="13.3291453"><ele>765.0</ele><time>2026-04-09T11:26:12.423Z</time></trkpt><trkpt lat="42.4020106" lon="13.3292264"><ele>767.0</ele><time>2026-04-09T11:26:13.423Z</time></trkpt><trkpt lat="42.4019741" lon="13.3293039"><ele>769.0</ele><time>2026-04-09T11:26:14.422Z</time></trkpt><trkpt lat="42.4019344" lon="13.3293805"><ele>769.0</ele><time>2026-04-09T11:26:15.423Z</time></trkpt><trkpt lat="42.4018926" lon="13.3294544"><ele>769.0</ele><time>2026-04-09T11:26:16.423Z</time></trkpt><trkpt lat="42.4018553" lon="13.3295262"><ele>769.0</ele><time>2026-04-09T11:26:17.423Z</time></trkpt><trkpt lat="42.4018298" lon="13.3296069"><ele>769.0</ele><time>2026-04-09T11:26:18.423Z</time></trkpt><trkpt lat="42.4018313" lon="13.3296978"><ele>769.0</ele><time>2026-04-09T11:26:19.423Z</time></trkpt><trkpt lat="42.4018444" lon="13.3297906"><ele>769.0</ele><time>2026-04-09T11:26:20.423Z</time></trkpt><trkpt lat="42.4018409" lon="13.3298869"><ele>769.0</ele><time>2026-04-09T11:26:21.424Z</time></trkpt><trkpt lat="42.401844" lon="13.3300366"><ele>769.4999999999999</ele><time>2026-04-09T11:26:23.423Z</time></trkpt><trkpt lat="42.4018879" lon="13.3300993"><ele>770.0</ele><time>2026-04-09T11:26:24.423Z</time></trkpt><trkpt lat="42.4019313" lon="13.3301734"><ele>770.5</ele><time>2026-04-09T11:26:25.423Z</time></trkpt><trkpt lat="42.4019713" lon="13.3302613"><ele>771.0</ele><time>2026-04-09T11:26:26.423Z</time></trkpt><trkpt lat="42.4020025" lon="13.3303516"><ele>771.4999999999999</ele><time>2026-04-09T11:26:27.423Z</time></trkpt><trkpt lat="42.4020215" lon="13.3305191"><ele>772.0</ele><time>2026-04-09T11:26:29.424Z</time></trkpt><trkpt lat="42.4019665" lon="13.3306752"><ele>773.2857142857143</ele><time>2026-04-09T11:26:31.422Z</time></trkpt><trkpt lat="42.4019293" lon="13.3307576"><ele>774.5714285714286</ele><time>2026-04-09T11:26:32.422Z</time></trkpt><trkpt lat="42.4018884" lon="13.3308452"><ele>775.8571428571429</ele><time>2026-04-09T11:26:33.422Z</time></trkpt><trkpt lat="42.4018504" lon="13.3309327"><ele>777.1428571428571</ele><time>2026-04-09T11:26:34.422Z</time></trkpt><trkpt lat="42.4018192" lon="13.3310221"><ele>778.4285714285714</ele><time>2026-04-09T11:26:35.423Z</time></trkpt><trkpt lat="42.4017944" lon="13.3311081"><ele>779.7142857142858</ele><time>2026-04-09T11:26:36.422Z</time></trkpt><trkpt lat="42.4017711" lon="13.3311961"><ele>781.0</ele><time>2026-04-09T11:26:37.424Z</time></trkpt><trkpt lat="42.4017514" lon="13.3312896"><ele>781.0</ele><time>2026-04-09T11:26:38.423Z</time></trkpt><trkpt lat="42.4017333" lon="13.3313786"><ele>781.0</ele><time>2026-04-09T11:26:39.423Z</time></trkpt><trkpt lat="42.4017194" lon="13.3314703"><ele>781.0</ele><time>2026-04-09T11:26:40.422Z</time></trkpt><trkpt lat="42.4017086" lon="13.3315612"><ele>781.0</ele><time>2026-04-09T11:26:41.424Z</time></trkpt><trkpt lat="42.4016949" lon="13.3316542"><ele>781.0</ele><time>2026-04-09T11:26:42.423Z</time></trkpt><trkpt lat="42.4016839" lon="13.3317447"><ele>781.0</ele><time>2026-04-09T11:26:43.422Z</time></trkpt><trkpt lat="42.401669" lon="13.3318381"><ele>781.0</ele><time>2026-04-09T11:26:44.422Z</time></trkpt><trkpt lat="42.4016485" lon="13.3319331"><ele>782.1666666666666</ele><time>2026-04-09T11:26:45.422Z</time></trkpt><trkpt lat="42.401602" lon="13.3320433"><ele>783.3333333333333</ele><time>2026-04-09T11:26:47.422Z</time></trkpt><trkpt lat="42.4015625" lon="13.3321226"><ele>784.5</ele><time>2026-04-09T11:26:57.423Z</time></trkpt><trkpt lat="42.4015014" lon="13.3321784"><ele>785.6666666666667</ele><time>2026-04-09T11:26:59.423Z</time></trkpt><trkpt lat="42.4015558" lon="13.3321153"><ele>786.8333333333334</ele><time>2026-04-09T11:27:14.423Z</time></trkpt><trkpt lat="42.4016041" lon="13.3320526"><ele>788.0</ele><time>2026-04-09T11:27:18.423Z</time></trkpt><trkpt lat="42.4015212" lon="13.3320058"><ele>788.0000000000001</ele><time>2026-04-09T11:27:29.423Z</time></trkpt><trkpt lat="42.4014407" lon="13.3320227"><ele>788.0</ele><time>2026-04-09T11:27:31.423Z</time></trkpt><trkpt lat="42.4013613" lon="13.3320281"><ele>788.0</ele><time>2026-04-09T11:27:33.422Z</time></trkpt><trkpt lat="42.4012911" lon="13.3320439"><ele>788.0</ele><time>2026-04-09T11:27:35.422Z</time></trkpt><trkpt lat="42.4012212" lon="13.3320439"><ele>788.0000000000001</ele><time>2026-04-09T11:27:37.423Z</time></trkpt><trkpt lat="42.4011483" lon="13.332041"><ele>788.0</ele><time>2026-04-09T11:27:39.421Z</time></trkpt><trkpt lat="42.4010718" lon="13.332037"><ele>789.8333333333334</ele><time>2026-04-09T11:27:41.422Z</time></trkpt><trkpt lat="42.4009926" lon="13.3320375"><ele>791.6666666666667</ele><time>2026-04-09T11:27:43.421Z</time></trkpt><trkpt lat="42.4009165" lon="13.3320654"><ele>793.5</ele><time>2026-04-09T11:27:45.422Z</time></trkpt><trkpt lat="42.4008462" lon="13.3321045"><ele>795.3333333333333</ele><time>2026-04-09T11:27:47.422Z</time></trkpt><trkpt lat="42.4007698" lon="13.3320762"><ele>797.1666666666666</ele><time>2026-04-09T11:27:49.422Z</time></trkpt><trkpt lat="42.4006859" lon="13.3319939"><ele>799.0</ele><time>2026-04-09T11:27:51.422Z</time></trkpt><trkpt lat="42.4005923" lon="13.3319153"><ele>802.25</ele><time>2026-04-09T11:27:53.422Z</time></trkpt><trkpt lat="42.4004796" lon="13.3318607"><ele>805.5</ele><time>2026-04-09T11:27:55.421Z</time></trkpt><trkpt lat="42.400366" lon="13.331822"><ele>808.75</ele><time>2026-04-09T11:27:57.422Z</time></trkpt><trkpt lat="42.4002601" lon="13.3317766"><ele>812.0</ele><time>2026-04-09T11:27:59.422Z</time></trkpt><trkpt lat="42.4001451" lon="13.3317143"><ele>812.0</ele><time>2026-04-09T11:28:01.421Z</time></trkpt><trkpt lat="42.4000801" lon="13.331696"><ele>812.0</ele><time>2026-04-09T11:28:02.421Z</time></trkpt><trkpt lat="42.399972" lon="13.33166"><ele>812.0</ele><time>2026-04-09T11:28:04.422Z</time></trkpt><trkpt lat="42.3998769" lon="13.3316446"><ele>812.0</ele><time>2026-04-09T11:28:06.421Z</time></trkpt><trkpt lat="42.3997928" lon="13.3317041"><ele>812.0</ele><time>2026-04-09T11:28:08.422Z</time></trkpt><trkpt lat="42.3997282" lon="13.3318082"><ele>812.0</ele><time>2026-04-09T11:28:10.422Z</time></trkpt><trkpt lat="42.3996899" lon="13.3319307"><ele>812.0</ele><time>2026-04-09T11:28:12.423Z</time></trkpt><trkpt lat="42.3996778" lon="13.3320607"><ele>812.0</ele><time>2026-04-09T11:28:14.422Z</time></trkpt><trkpt lat="42.3996939" lon="13.3322176"><ele>812.0</ele><time>2026-04-09T11:28:16.421Z</time></trkpt><trkpt lat="42.3996922" lon="13.3323699"><ele>812.0</ele><time>2026-04-09T11:28:18.422Z</time></trkpt><trkpt lat="42.3996736" lon="13.3325102"><ele>813.2</ele><time>2026-04-09T11:28:20.423Z</time></trkpt><trkpt lat="42.3996651" lon="13.3326489"><ele>814.4000000000001</ele><time>2026-04-09T11:28:22.422Z</time></trkpt><trkpt lat="42.3996872" lon="13.3327937"><ele>815.5999999999999</ele><time>2026-04-09T11:28:24.422Z</time></trkpt><trkpt lat="42.3997367" lon="13.332943"><ele>816.8</ele><time>2026-04-09T11:28:26.421Z</time></trkpt><trkpt lat="42.3998005" lon="13.3330729"><ele>818.0</ele><time>2026-04-09T11:28:28.422Z</time></trkpt><trkpt lat="42.3998604" lon="13.3331995"><ele>819.8</ele><time>2026-04-09T11:28:30.422Z</time></trkpt><trkpt lat="42.3999023" lon="13.3333354"><ele>821.5999999999999</ele><time>2026-04-09T11:28:32.422Z</time></trkpt><trkpt lat="42.3999227" lon="13.3334887"><ele>823.4000000000001</ele><time>2026-04-09T11:28:34.422Z</time></trkpt><trkpt lat="42.399914" lon="13.3336345"><ele>825.2</ele><time>2026-04-09T11:28:36.422Z</time></trkpt><trkpt lat="42.3998801" lon="13.333755"><ele>827.0</ele><time>2026-04-09T11:28:38.422Z</time></trkpt><trkpt lat="42.3998709" lon="13.333899"><ele>828.8</ele><time>2026-04-09T11:28:40.422Z</time></trkpt><trkpt lat="42.3998969" lon="13.3340258"><ele>830.6</ele><time>2026-04-09T11:28:42.422Z</time></trkpt><trkpt lat="42.3999557" lon="13.3341695"><ele>832.4</ele><time>2026-04-09T11:28:44.422Z</time></trkpt><trkpt lat="42.4000249" lon="13.3342876"><ele>834.1999999999999</ele><time>2026-04-09T11:28:46.422Z</time></trkpt><trkpt lat="42.4000543" lon="13.334402"><ele>836.0</ele><time>2026-04-09T11:28:48.422Z</time></trkpt><trkpt lat="42.4000484" lon="13.334531"><ele>836.0000000000001</ele><time>2026-04-09T11:28:50.422Z</time></trkpt><trkpt lat="42.4000598" lon="13.3346575"><ele>836.0</ele><time>2026-04-09T11:28:52.421Z</time></trkpt><trkpt lat="42.4000751" lon="13.334744"><ele>836.0</ele><time>2026-04-09T11:28:55.422Z</time></trkpt><trkpt lat="42.4001514" lon="13.3346973"><ele>836.0</ele><time>2026-04-09T11:28:59.422Z</time></trkpt><trkpt lat="42.4002113" lon="13.3347656"><ele>836.0000000000001</ele><time>2026-04-09T11:29:02.422Z</time></trkpt><trkpt lat="42.4002692" lon="13.3348089"><ele>836.0</ele><time>2026-04-09T11:29:04.422Z</time></trkpt><trkpt lat="42.4003335" lon="13.3348583"><ele>836.8333333333334</ele><time>2026-04-09T11:29:06.422Z</time></trkpt><trkpt lat="42.400382" lon="13.3349276"><ele>837.6666666666667</ele><time>2026-04-09T11:29:08.422Z</time></trkpt><trkpt lat="42.4004789" lon="13.3349152"><ele>838.5</ele><time>2026-04-09T11:29:10.422Z</time></trkpt><trkpt lat="42.4005591" lon="13.3348956"><ele>839.3333333333333</ele><time>2026-04-09T11:29:12.421Z</time></trkpt><trkpt lat="42.4006412" lon="13.3348703"><ele>840.1666666666666</ele><time>2026-04-09T11:29:14.422Z</time></trkpt><trkpt lat="42.4007348" lon="13.3348571"><ele>841.0</ele><time>2026-04-09T11:29:16.422Z</time></trkpt><trkpt lat="42.4008281" lon="13.3348814"><ele>841.5999999999999</ele><time>2026-04-09T11:29:18.422Z</time></trkpt><trkpt lat="42.4009132" lon="13.334934"><ele>842.2</ele><time>2026-04-09T11:29:20.422Z</time></trkpt><trkpt lat="42.4009719" lon="13.3350299"><ele>842.8</ele><time>2026-04-09T11:29:22.422Z</time></trkpt><trkpt lat="42.4010242" lon="13.3351414"><ele>843.4000000000001</ele><time>2026-04-09T11:29:24.422Z</time></trkpt><trkpt lat="42.4010807" lon="13.3352566"><ele>844.0</ele><time>2026-04-09T11:29:26.422Z</time></trkpt><trkpt lat="42.4011409" lon="13.3353839"><ele>844.0</ele><time>2026-04-09T11:29:28.423Z</time></trkpt><trkpt lat="42.4011761" lon="13.3354555"><ele>844.0</ele><time>2026-04-09T11:29:29.422Z</time></trkpt><trkpt lat="42.4012102" lon="13.3355355"><ele>844.0</ele><time>2026-04-09T11:29:30.421Z</time></trkpt><trkpt lat="42.4012735" lon="13.3356846"><ele>844.0</ele><time>2026-04-09T11:29:32.423Z</time></trkpt><trkpt lat="42.4013178" lon="13.3358081"><ele>844.0</ele><time>2026-04-09T11:29:34.422Z</time></trkpt><trkpt lat="42.4013545" lon="13.335926"><ele>843.4999999999999</ele><time>2026-04-09T11:29:36.422Z</time></trkpt><trkpt lat="42.40138" lon="13.336031"><ele>843.0</ele><time>2026-04-09T11:29:38.421Z</time></trkpt><trkpt lat="42.4014038" lon="13.3361113"><ele>842.5</ele><time>2026-04-09T11:29:40.421Z</time></trkpt><trkpt lat="42.4014601" lon="13.3362078"><ele>842.0</ele><time>2026-04-09T11:29:43.421Z</time></trkpt><trkpt lat="42.4015264" lon="13.3362672"><ele>841.4999999999999</ele><time>2026-04-09T11:29:45.421Z</time></trkpt><trkpt lat="42.401619" lon="13.3362803"><ele>841.0</ele><time>2026-04-09T11:29:47.423Z</time></trkpt><trkpt lat="42.4017008" lon="13.3362728"><ele>840.9999999999999</ele><time>2026-04-09T11:29:49.422Z</time></trkpt><trkpt lat="42.4017614" lon="13.3363046"><ele>841.0</ele><time>2026-04-09T11:29:51.423Z</time></trkpt><trkpt lat="42.4018226" lon="13.3363699"><ele>841.0</ele><time>2026-04-09T11:29:53.422Z</time></trkpt><trkpt lat="42.4018767" lon="13.336433"><ele>841.0</ele><time>2026-04-09T11:29:55.423Z</time></trkpt><trkpt lat="42.4019206" lon="13.3365137"><ele>840.9999999999999</ele><time>2026-04-09T11:29:57.421Z</time></trkpt><trkpt lat="42.4019066" lon="13.3366216"><ele>841.0</ele><time>2026-04-09T11:29:59.422Z</time></trkpt><trkpt lat="42.4018641" lon="13.3367309"><ele>840.5999999999999</ele><time>2026-04-09T11:30:01.422Z</time></trkpt><trkpt lat="42.4018273" lon="13.3368601"><ele>840.2</ele><time>2026-04-09T11:30:03.422Z</time></trkpt><trkpt lat="42.4018" lon="13.3369378"><ele>839.8</ele><time>2026-04-09T11:30:04.422Z</time></trkpt><trkpt lat="42.4017639" lon="13.3370876"><ele>839.4000000000001</ele><time>2026-04-09T11:30:06.422Z</time></trkpt><trkpt lat="42.4017336" lon="13.3372304"><ele>839.0</ele><time>2026-04-09T11:30:08.423Z</time></trkpt><trkpt lat="42.4017047" lon="13.3373655"><ele>838.2</ele><time>2026-04-09T11:30:10.422Z</time></trkpt><trkpt lat="42.401658" lon="13.3374782"><ele>837.4000000000001</ele><time>2026-04-09T11:30:12.423Z</time></trkpt><trkpt lat="42.401619" lon="13.3375632"><ele>836.6</ele><time>2026-04-09T11:30:14.422Z</time></trkpt><trkpt lat="42.4015883" lon="13.3376678"><ele>835.8</ele><time>2026-04-09T11:30:16.422Z</time></trkpt><trkpt lat="42.4015561" lon="13.3377983"><ele>835.0</ele><time>2026-04-09T11:30:18.421Z</time></trkpt><trkpt lat="42.4015578" lon="13.3379461"><ele>834.6</ele><time>2026-04-09T11:30:20.422Z</time></trkpt><trkpt lat="42.4015526" lon="13.3381172"><ele>834.2</ele><time>2026-04-09T11:30:22.421Z</time></trkpt><trkpt lat="42.401546" lon="13.3382077"><ele>833.8</ele><time>2026-04-09T11:30:23.422Z</time></trkpt><trkpt lat="42.4015419" lon="13.338372"><ele>833.4</ele><time>2026-04-09T11:30:25.421Z</time></trkpt><trkpt lat="42.4015513" lon="13.3385191"><ele>833.0</ele><time>2026-04-09T11:30:27.422Z</time></trkpt><trkpt lat="42.4015439" lon="13.3386732"><ele>833.0</ele><time>2026-04-09T11:30:29.422Z</time></trkpt><trkpt lat="42.4015365" lon="13.3388065"><ele>833.0</ele><time>2026-04-09T11:30:31.422Z</time></trkpt><trkpt lat="42.4015078" lon="13.3389375"><ele>833.0</ele><time>2026-04-09T11:30:33.421Z</time></trkpt><trkpt lat="42.4014713" lon="13.3390795"><ele>833.0</ele><time>2026-04-09T11:30:35.422Z</time></trkpt><trkpt lat="42.4014623" lon="13.3392199"><ele>833.0</ele><time>2026-04-09T11:30:37.422Z</time></trkpt><trkpt lat="42.4014568" lon="13.3393764"><ele>832.6666666666667</ele><time>2026-04-09T11:30:39.421Z</time></trkpt><trkpt lat="42.4014714" lon="13.3394661"><ele>832.3333333333334</ele><time>2026-04-09T11:30:40.422Z</time></trkpt><trkpt lat="42.4014802" lon="13.3395542"><ele>832.0</ele><time>2026-04-09T11:30:41.422Z</time></trkpt><trkpt lat="42.4014946" lon="13.3396433"><ele>831.6666666666667</ele><time>2026-04-09T11:30:42.422Z</time></trkpt><trkpt lat="42.4015009" lon="13.3397298"><ele>831.3333333333334</ele><time>2026-04-09T11:30:43.422Z</time></trkpt><trkpt lat="42.4015136" lon="13.3398766"><ele>831.0</ele><time>2026-04-09T11:30:45.422Z</time></trkpt><trkpt lat="42.4015291" lon="13.340026"><ele>830.1999999999999</ele><time>2026-04-09T11:30:47.422Z</time></trkpt><trkpt lat="42.4015553" lon="13.3401756"><ele>829.4</ele><time>2026-04-09T11:30:49.422Z</time></trkpt><trkpt lat="42.4015935" lon="13.3403269"><ele>828.6</ele><time>2026-04-09T11:30:51.422Z</time></trkpt><trkpt lat="42.4016166" lon="13.3404637"><ele>827.8</ele><time>2026-04-09T11:30:53.422Z</time></trkpt><trkpt lat="42.4016174" lon="13.3405798"><ele>827.0</ele><time>2026-04-09T11:30:55.423Z</time></trkpt><trkpt lat="42.4016117" lon="13.3406763"><ele>825.8333333333334</ele><time>2026-04-09T11:30:57.422Z</time></trkpt><trkpt lat="42.4016258" lon="13.3407757"><ele>824.6666666666667</ele><time>2026-04-09T11:31:00.423Z</time></trkpt><trkpt lat="42.4016597" lon="13.3408727"><ele>823.5</ele><time>2026-04-09T11:31:03.422Z</time></trkpt><trkpt lat="42.4016866" lon="13.340964"><ele>822.3333333333333</ele><time>2026-04-09T11:31:05.421Z</time></trkpt><trkpt lat="42.4017242" lon="13.3410688"><ele>821.1666666666666</ele><time>2026-04-09T11:31:07.422Z</time></trkpt><trkpt lat="42.4017714" lon="13.3411728"><ele>820.0</ele><time>2026-04-09T11:31:09.422Z</time></trkpt><trkpt lat="42.4018071" lon="13.3412577"><ele>819.9999999999999</ele><time>2026-04-09T11:31:11.421Z</time></trkpt><trkpt lat="42.4018639" lon="13.3413714"><ele>820.0</ele><time>2026-04-09T11:31:14.422Z</time></trkpt><trkpt lat="42.4018939" lon="13.3414773"><ele>820.0</ele><time>2026-04-09T11:31:16.421Z</time></trkpt><trkpt lat="42.4019233" lon="13.3415848"><ele>820.0</ele><time>2026-04-09T11:31:18.423Z</time></trkpt><trkpt lat="42.4019634" lon="13.3416899"><ele>819.9999999999999</ele><time>2026-04-09T11:31:20.421Z</time></trkpt><trkpt lat="42.4019848" lon="13.3417775"><ele>820.0</ele><time>2026-04-09T11:31:22.422Z</time></trkpt><trkpt lat="42.4020269" lon="13.3418495"><ele>820.6</ele><time>2026-04-09T11:31:24.422Z</time></trkpt><trkpt lat="42.4020778" lon="13.3419206"><ele>821.2</ele><time>2026-04-09T11:31:26.422Z</time></trkpt><trkpt lat="42.4021468" lon="13.3419913"><ele>821.8</ele><time>2026-04-09T11:31:28.422Z</time></trkpt><trkpt lat="42.4022327" lon="13.3420675"><ele>822.4</ele><time>2026-04-09T11:31:30.421Z</time></trkpt><trkpt lat="42.4023198" lon="13.3421456"><ele>823.0</ele><time>2026-04-09T11:31:32.422Z</time></trkpt><trkpt lat="42.4023912" lon="13.3422241"><ele>819.6666666666666</ele><time>2026-04-09T11:31:34.421Z</time></trkpt><trkpt lat="42.4024569" lon="13.342298"><ele>816.3333333333333</ele><time>2026-04-09T11:31:36.422Z</time></trkpt><trkpt lat="42.4025281" lon="13.3423943"><ele>813.0</ele><time>2026-04-09T11:31:38.421Z</time></trkpt><trkpt lat="42.4025904" lon="13.3424703"><ele>809.6666666666667</ele><time>2026-04-09T11:31:40.422Z</time></trkpt><trkpt lat="42.4026638" lon="13.342528"><ele>806.3333333333334</ele><time>2026-04-09T11:31:42.421Z</time></trkpt><trkpt lat="42.4027452" lon="13.3425658"><ele>803.0</ele><time>2026-04-09T11:31:44.422Z</time></trkpt><trkpt lat="42.402827" lon="13.3426061"><ele>803.0000000000001</ele><time>2026-04-09T11:31:46.422Z</time></trkpt><trkpt lat="42.4028917" lon="13.3426461"><ele>803.0</ele><time>2026-04-09T11:31:48.422Z</time></trkpt><trkpt lat="42.4029502" lon="13.3427049"><ele>803.0</ele><time>2026-04-09T11:31:50.422Z</time></trkpt><trkpt lat="42.4030229" lon="13.3427681"><ele>803.0</ele><time>2026-04-09T11:31:52.421Z</time></trkpt><trkpt lat="42.4030822" lon="13.3428333"><ele>803.0000000000001</ele><time>2026-04-09T11:31:54.422Z</time></trkpt><trkpt lat="42.403154" lon="13.3428903"><ele>803.0</ele><time>2026-04-09T11:31:57.422Z</time></trkpt><trkpt lat="42.4032113" lon="13.3429261"><ele>802.1666666666667</ele><time>2026-04-09T11:32:00.423Z</time></trkpt><trkpt lat="42.4032858" lon="13.3429557"><ele>801.3333333333334</ele><time>2026-04-09T11:32:03.421Z</time></trkpt><trkpt lat="42.4033546" lon="13.3429482"><ele>800.5</ele><time>2026-04-09T11:32:05.422Z</time></trkpt><trkpt lat="42.4033894" lon="13.3430217"><ele>799.6666666666667</ele><time>2026-04-09T11:32:32.42Z</time></trkpt><trkpt lat="42.4033986" lon="13.3431464"><ele>798.8333333333334</ele><time>2026-04-09T11:32:35.421Z</time></trkpt><trkpt lat="42.403401" lon="13.3432499"><ele>798.0</ele><time>2026-04-09T11:32:37.421Z</time></trkpt><trkpt lat="42.4033715" lon="13.3433525"><ele>798.0</ele><time>2026-04-09T11:32:39.421Z</time></trkpt><trkpt lat="42.4032982" lon="13.3434303"><ele>798.0</ele><time>2026-04-09T11:32:41.421Z</time></trkpt><trkpt lat="42.4032108" lon="13.3434359"><ele>798.0</ele><time>2026-04-09T11:32:43.42Z</time></trkpt><trkpt lat="42.4031334" lon="13.3434086"><ele>798.0</ele><time>2026-04-09T11:32:45.42Z</time></trkpt><trkpt lat="42.4030453" lon="13.3433548"><ele>798.0</ele><time>2026-04-09T11:32:47.421Z</time></trkpt><trkpt lat="42.4029212" lon="13.3433412"><ele>796.8333333333334</ele><time>2026-04-09T11:32:49.421Z</time></trkpt><trkpt lat="42.4028493" lon="13.3433405"><ele>795.6666666666667</ele><time>2026-04-09T11:32:50.421Z</time></trkpt><trkpt lat="42.4027757" lon="13.3433443"><ele>794.5</ele><time>2026-04-09T11:32:51.421Z</time></trkpt><trkpt lat="42.4027082" lon="13.3433351"><ele>793.3333333333334</ele><time>2026-04-09T11:32:52.421Z</time></trkpt><trkpt lat="42.4025795" lon="13.343299"><ele>792.1666666666667</ele><time>2026-04-09T11:32:54.421Z</time></trkpt><trkpt lat="42.4025095" lon="13.3432819"><ele>791.0</ele><time>2026-04-09T11:32:55.421Z</time></trkpt><trkpt lat="42.4024403" lon="13.3432674"><ele>791.0000000000001</ele><time>2026-04-09T11:32:56.422Z</time></trkpt><trkpt lat="42.4023213" lon="13.343246"><ele>791.0</ele><time>2026-04-09T11:32:58.421Z</time></trkpt><trkpt lat="42.4022585" lon="13.3432302"><ele>791.0</ele><time>2026-04-09T11:32:59.421Z</time></trkpt><trkpt lat="42.4021936" lon="13.3432021"><ele>791.0</ele><time>2026-04-09T11:33:00.421Z</time></trkpt><trkpt lat="42.4020808" lon="13.3431611"><ele>791.0000000000001</ele><time>2026-04-09T11:33:02.421Z</time></trkpt><trkpt lat="42.4020023" lon="13.3431507"><ele>791.0</ele><time>2026-04-09T11:33:04.42Z</time></trkpt><trkpt lat="42.4019319" lon="13.343129"><ele>790.4</ele><time>2026-04-09T11:33:06.421Z</time></trkpt><trkpt lat="42.4018546" lon="13.3431129"><ele>789.8</ele><time>2026-04-09T11:33:08.42Z</time></trkpt><trkpt lat="42.4017686" lon="13.343075"><ele>789.1999999999999</ele><time>2026-04-09T11:33:10.421Z</time></trkpt><trkpt lat="42.4016573" lon="13.3429846"><ele>788.5999999999999</ele><time>2026-04-09T11:33:12.421Z</time></trkpt><trkpt lat="42.4015967" lon="13.3429184"><ele>788.0</ele><time>2026-04-09T11:33:13.42Z</time></trkpt><trkpt lat="42.4015304" lon="13.342849"><ele>788.0000000000001</ele><time>2026-04-09T11:33:14.42Z</time></trkpt><trkpt lat="42.4014621" lon="13.3427761"><ele>788.0</ele><time>2026-04-09T11:33:15.421Z</time></trkpt><trkpt lat="42.401401" lon="13.3427183"><ele>788.0</ele><time>2026-04-09T11:33:16.421Z</time></trkpt><trkpt lat="42.4013344" lon="13.3426578"><ele>788.0</ele><time>2026-04-09T11:33:17.42Z</time></trkpt><trkpt lat="42.4012613" lon="13.3426045"><ele>788.0000000000001</ele><time>2026-04-09T11:33:18.421Z</time></trkpt><trkpt lat="42.4011922" lon="13.3425664"><ele>788.0</ele><time>2026-04-09T11:33:19.422Z</time></trkpt><trkpt lat="42.4011211" lon="13.3425336"><ele>788.0000000000001</ele><time>2026-04-09T11:33:20.42Z</time></trkpt><trkpt lat="42.4010603" lon="13.342501"><ele>788.0</ele><time>2026-04-09T11:33:21.42Z</time></trkpt><trkpt lat="42.4010059" lon="13.3424466"><ele>788.0</ele><time>2026-04-09T11:33:22.42Z</time></trkpt><trkpt lat="42.400954" lon="13.3423837"><ele>788.0</ele><time>2026-04-09T11:33:23.421Z</time></trkpt><trkpt lat="42.4009036" lon="13.3423259"><ele>788.0000000000001</ele><time>2026-04-09T11:33:24.421Z</time></trkpt><trkpt lat="42.4008156" lon="13.3422318"><ele>788.0</ele><time>2026-04-09T11:33:26.422Z</time></trkpt><trkpt lat="42.4007206" lon="13.3421872"><ele>788.0000000000001</ele><time>2026-04-09T11:33:28.421Z</time></trkpt><trkpt lat="42.4006438" lon="13.3422202"><ele>788.0</ele><time>2026-04-09T11:33:30.421Z</time></trkpt><trkpt lat="42.4006393" lon="13.3423459"><ele>788.0</ele><time>2026-04-09T11:33:32.421Z</time></trkpt><trkpt lat="42.4006845" lon="13.3424221"><ele>788.0</ele><time>2026-04-09T11:33:33.421Z</time></trkpt><trkpt lat="42.4007515" lon="13.3425047"><ele>788.0000000000001</ele><time>2026-04-09T11:33:34.42Z</time></trkpt><trkpt lat="42.4008263" lon="13.3425773"><ele>788.0</ele><time>2026-04-09T11:33:35.421Z</time></trkpt><trkpt lat="42.4008986" lon="13.3426433"><ele>788.0000000000001</ele><time>2026-04-09T11:33:36.421Z</time></trkpt><trkpt lat="42.4009632" lon="13.3426918"><ele>788.0</ele><time>2026-04-09T11:33:37.421Z</time></trkpt><trkpt lat="42.4010663" lon="13.3427115"><ele>788.0</ele><time>2026-04-09T11:33:39.421Z</time></trkpt><trkpt lat="42.4011112" lon="13.3426365"><ele>788.0</ele><time>2026-04-09T11:33:41.421Z</time></trkpt><trkpt lat="42.401051" lon="13.3425098"><ele>788.0000000000001</ele><time>2026-04-09T11:33:43.421Z</time></trkpt><trkpt lat="42.4009889" lon="13.3424377"><ele>788.0</ele><time>2026-04-09T11:33:44.421Z</time></trkpt><trkpt lat="42.4009265" lon="13.3423591"><ele>788.0</ele><time>2026-04-09T11:33:45.42Z</time></trkpt><trkpt lat="42.4008796" lon="13.3422874"><ele>788.0</ele><time>2026-04-09T11:33:46.421Z</time></trkpt><trkpt lat="42.4007992" lon="13.3421672"><ele>788.0</ele><time>2026-04-09T11:33:48.421Z</time></trkpt><trkpt lat="42.4007244" lon="13.3420461"><ele>788.0</ele><time>2026-04-09T11:33:50.42Z</time></trkpt><trkpt lat="42.400649" lon="13.3419207"><ele>788.0</ele><time>2026-04-09T11:33:52.421Z</time></trkpt><trkpt lat="42.4005979" lon="13.3417969"><ele>788.1428571428571</ele><time>2026-04-09T11:33:54.421Z</time></trkpt><trkpt lat="42.4005421" lon="13.3417131"><ele>788.2857142857143</ele><time>2026-04-09T11:33:56.421Z</time></trkpt><trkpt lat="42.4004788" lon="13.3417028"><ele>788.4285714285713</ele><time>2026-04-09T11:33:58.421Z</time></trkpt><trkpt lat="42.4004051" lon="13.3417038"><ele>788.5714285714286</ele><time>2026-04-09T11:34:00.42Z</time></trkpt><trkpt lat="42.4003245" lon="13.3416981"><ele>788.7142857142857</ele><time>2026-04-09T11:36:46.42Z</time></trkpt><trkpt lat="42.4002526" lon="13.3416728"><ele>788.8571428571428</ele><time>2026-04-09T11:36:49.421Z</time></trkpt><trkpt lat="42.4001921" lon="13.3416248"><ele>789.0</ele><time>2026-04-09T11:36:51.42Z</time></trkpt><trkpt lat="42.4001325" lon="13.3415614"><ele>789.0</ele><time>2026-04-09T11:36:53.42Z</time></trkpt><trkpt lat="42.4000792" lon="13.3414676"><ele>789.0</ele><time>2026-04-09T11:36:55.419Z</time></trkpt><trkpt lat="42.4000375" lon="13.3413879"><ele>789.0</ele><time>2026-04-09T11:36:57.419Z</time></trkpt><trkpt lat="42.4000124" lon="13.341309"><ele>789.0</ele><time>2026-04-09T11:36:59.419Z</time></trkpt><trkpt lat="42.3999753" lon="13.3411876"><ele>789.0</ele><time>2026-04-09T11:37:02.42Z</time></trkpt><trkpt lat="42.3999602" lon="13.3410909"><ele>789.0</ele><time>2026-04-09T11:37:04.42Z</time></trkpt><trkpt lat="42.3999676" lon="13.341002"><ele>789.0</ele><time>2026-04-09T11:37:06.42Z</time></trkpt><trkpt lat="42.3999648" lon="13.3409113"><ele>789.0</ele><time>2026-04-09T11:37:08.42Z</time></trkpt><trkpt lat="42.3999175" lon="13.3408063"><ele>789.0</ele><time>2026-04-09T11:37:11.42Z</time></trkpt><trkpt lat="42.3998602" lon="13.3407638"><ele>789.0</ele><time>2026-04-09T11:37:13.42Z</time></trkpt><trkpt lat="42.3998006" lon="13.3407218"><ele>789.0</ele><time>2026-04-09T11:37:15.42Z</time></trkpt><trkpt lat="42.3997484" lon="13.3406187"><ele>789.0</ele><time>2026-04-09T11:37:17.42Z</time></trkpt><trkpt lat="42.3996974" lon="13.3405325"><ele>788.5</ele><time>2026-04-09T11:37:19.419Z</time></trkpt><trkpt lat="42.3996965" lon="13.3404055"><ele>788.0</ele><time>2026-04-09T11:37:21.42Z</time></trkpt><trkpt lat="42.399691" lon="13.3403093"><ele>787.5</ele><time>2026-04-09T11:37:23.42Z</time></trkpt><trkpt lat="42.3996818" lon="13.3402233"><ele>787.0</ele><time>2026-04-09T11:37:25.42Z</time></trkpt><trkpt lat="42.3996688" lon="13.3401224"><ele>786.5</ele><time>2026-04-09T11:37:27.42Z</time></trkpt><trkpt lat="42.3996378" lon="13.3399877"><ele>786.0</ele><time>2026-04-09T11:37:29.42Z</time></trkpt><trkpt lat="42.3996039" lon="13.3398828"><ele>786.0000000000001</ele><time>2026-04-09T11:37:31.419Z</time></trkpt><trkpt lat="42.3995329" lon="13.3398071"><ele>786.0</ele><time>2026-04-09T11:37:33.42Z</time></trkpt><trkpt lat="42.3994714" lon="13.3397642"><ele>786.0</ele><time>2026-04-09T11:37:35.42Z</time></trkpt><trkpt lat="42.3994" lon="13.3397429"><ele>786.0</ele><time>2026-04-09T11:37:37.419Z</time></trkpt><trkpt lat="42.3993221" lon="13.3397363"><ele>786.0</ele><time>2026-04-09T11:37:39.419Z</time></trkpt><trkpt lat="42.3992594" lon="13.3397059"><ele>786.0000000000001</ele><time>2026-04-09T11:37:41.42Z</time></trkpt><trkpt lat="42.3991986" lon="13.3396551"><ele>786.0</ele><time>2026-04-09T11:37:44.42Z</time></trkpt><trkpt lat="42.3991341" lon="13.3396333"><ele>784.1666666666666</ele><time>2026-04-09T11:37:46.42Z</time></trkpt><trkpt lat="42.3990662" lon="13.339606"><ele>782.3333333333333</ele><time>2026-04-09T11:37:48.421Z</time></trkpt><trkpt lat="42.3990063" lon="13.3395465"><ele>780.5</ele><time>2026-04-09T11:37:50.42Z</time></trkpt><trkpt lat="42.3989343" lon="13.3394931"><ele>778.6666666666666</ele><time>2026-04-09T11:37:52.419Z</time></trkpt><trkpt lat="42.3988391" lon="13.3394501"><ele>776.8333333333333</ele><time>2026-04-09T11:37:54.419Z</time></trkpt><trkpt lat="42.3987498" lon="13.3394379"><ele>775.0</ele><time>2026-04-09T11:37:56.42Z</time></trkpt><trkpt lat="42.3986615" lon="13.339427"><ele>772.9999999999999</ele><time>2026-04-09T11:37:58.419Z</time></trkpt><trkpt lat="42.3985816" lon="13.3394223"><ele>771.0</ele><time>2026-04-09T11:38:00.42Z</time></trkpt><trkpt lat="42.398494" lon="13.3394183"><ele>769.0</ele><time>2026-04-09T11:38:02.42Z</time></trkpt><trkpt lat="42.3984412" lon="13.3393808"><ele>767.0</ele><time>2026-04-09T11:45:16.417Z</time></trkpt><trkpt lat="42.3983857" lon="13.339441"><ele>765.0</ele><time>2026-04-09T11:45:37.419Z</time></trkpt><trkpt lat="42.3982963" lon="13.3394755"><ele>763.0</ele><time>2026-04-09T11:45:40.417Z</time></trkpt><trkpt lat="42.3982062" lon="13.3394718"><ele>763.0</ele><time>2026-04-09T11:45:42.418Z</time></trkpt><trkpt lat="42.3981204" lon="13.3394594"><ele>763.0</ele><time>2026-04-09T11:45:44.417Z</time></trkpt><trkpt lat="42.3980145" lon="13.3394203"><ele>763.0</ele><time>2026-04-09T11:45:46.417Z</time></trkpt><trkpt lat="42.3979266" lon="13.339389"><ele>763.0</ele><time>2026-04-09T11:45:48.418Z</time></trkpt><trkpt lat="42.3978443" lon="13.3393393"><ele>763.0</ele><time>2026-04-09T11:45:50.418Z</time></trkpt><trkpt lat="42.3977596" lon="13.339286"><ele>762.5999999999999</ele><time>2026-04-09T11:45:52.418Z</time></trkpt><trkpt lat="42.397683" lon="13.3392418"><ele>762.1999999999999</ele><time>2026-04-09T11:45:54.417Z</time></trkpt><trkpt lat="42.3975741" lon="13.3391968"><ele>761.8</ele><time>2026-04-09T11:45:56.418Z</time></trkpt><trkpt lat="42.3974929" lon="13.3392225"><ele>761.4</ele><time>2026-04-09T11:45:58.417Z</time></trkpt><trkpt lat="42.397412" lon="13.3392558"><ele>761.0</ele><time>2026-04-09T11:46:00.417Z</time></trkpt><trkpt lat="42.3973224" lon="13.3392909"><ele>761.0</ele><time>2026-04-09T11:46:02.418Z</time></trkpt><trkpt lat="42.3972368" lon="13.3393214"><ele>761.0</ele><time>2026-04-09T11:46:04.418Z</time></trkpt><trkpt lat="42.3971547" lon="13.3393388"><ele>761.0</ele><time>2026-04-09T11:46:06.418Z</time></trkpt><trkpt lat="42.3970636" lon="13.3393351"><ele>761.0</ele><time>2026-04-09T11:46:09.418Z</time></trkpt><trkpt lat="42.3969752" lon="13.3393423"><ele>761.0</ele><time>2026-04-09T11:46:12.418Z</time></trkpt><trkpt lat="42.3969106" lon="13.3393638"><ele>761.0</ele><time>2026-04-09T11:46:14.418Z</time></trkpt><trkpt lat="42.396823" lon="13.3393798"><ele>760.3333333333333</ele><time>2026-04-09T11:46:17.418Z</time></trkpt><trkpt lat="42.3967419" lon="13.3393851"><ele>759.6666666666666</ele><time>2026-04-09T11:46:19.418Z</time></trkpt><trkpt lat="42.396656" lon="13.3393863"><ele>759.0</ele><time>2026-04-09T11:46:22.418Z</time></trkpt><trkpt lat="42.3965746" lon="13.3393436"><ele>758.3333333333334</ele><time>2026-04-09T11:46:25.417Z</time></trkpt><trkpt lat="42.3965063" lon="13.3393235"><ele>757.6666666666667</ele><time>2026-04-09T11:46:27.419Z</time></trkpt><trkpt lat="42.3964307" lon="13.339296"><ele>757.0</ele><time>2026-04-09T11:46:30.418Z</time></trkpt><trkpt lat="42.3963493" lon="13.3392575"><ele>756.1666666666667</ele><time>2026-04-09T11:46:33.418Z</time></trkpt><trkpt lat="42.3962737" lon="13.3392235"><ele>755.3333333333334</ele><time>2026-04-09T11:46:36.418Z</time></trkpt><trkpt lat="42.3962015" lon="13.3392175"><ele>754.5</ele><time>2026-04-09T11:46:58.418Z</time></trkpt><trkpt lat="42.396233" lon="13.3393373"><ele>753.6666666666666</ele><time>2026-04-09T11:47:02.417Z</time></trkpt><trkpt lat="42.3962891" lon="13.3394002"><ele>752.8333333333333</ele><time>2026-04-09T11:47:04.418Z</time></trkpt><trkpt lat="42.3963024" lon="13.3394985"><ele>752.0</ele><time>2026-04-09T11:47:07.418Z</time></trkpt><trkpt lat="42.3962729" lon="13.3395772"><ele>752.0</ele><time>2026-04-09T11:47:09.419Z</time></trkpt><trkpt lat="42.3962416" lon="13.3396522"><ele>752.0</ele><time>2026-04-09T11:47:11.417Z</time></trkpt><trkpt lat="42.3961991" lon="13.3397269"><ele>752.0</ele><time>2026-04-09T11:47:13.418Z</time></trkpt><trkpt lat="42.3961806" lon="13.339814"><ele>752.0</ele><time>2026-04-09T11:47:15.419Z</time></trkpt><trkpt lat="42.3961757" lon="13.3399135"><ele>752.0</ele><time>2026-04-09T11:47:17.418Z</time></trkpt><trkpt lat="42.3961768" lon="13.3400347"><ele>752.0</ele><time>2026-04-09T11:47:19.418Z</time></trkpt><trkpt lat="42.3961604" lon="13.3401276"><ele>752.0</ele><time>2026-04-09T11:47:21.418Z</time></trkpt><trkpt lat="42.3961126" lon="13.3401989"><ele>752.1666666666666</ele><time>2026-04-09T11:47:23.418Z</time></trkpt><trkpt lat="42.3960485" lon="13.3402349"><ele>752.3333333333333</ele><time>2026-04-09T11:47:25.417Z</time></trkpt><trkpt lat="42.3959849" lon="13.3402905"><ele>752.5</ele><time>2026-04-09T11:47:27.418Z</time></trkpt><trkpt lat="42.3959105" lon="13.340343"><ele>752.6666666666666</ele><time>2026-04-09T11:47:29.417Z</time></trkpt><trkpt lat="42.395835" lon="13.3403767"><ele>752.8333333333334</ele><time>2026-04-09T11:47:31.418Z</time></trkpt><trkpt lat="42.3957633" lon="13.3403938"><ele>753.0</ele><time>2026-04-09T11:47:33.418Z</time></trkpt><trkpt lat="42.3956874" lon="13.3403727"><ele>753.0</ele><time>2026-04-09T11:47:35.418Z</time></trkpt><trkpt lat="42.3956143" lon="13.3403216"><ele>753.0</ele><time>2026-04-09T11:47:37.417Z</time></trkpt><trkpt lat="42.3955466" lon="13.3402544"><ele>753.0</ele><time>2026-04-09T11:47:39.418Z</time></trkpt><trkpt lat="42.3954824" lon="13.3401867"><ele>753.0</ele><time>2026-04-09T11:47:41.418Z</time></trkpt><trkpt lat="42.3954237" lon="13.3401128"><ele>753.0</ele><time>2026-04-09T11:47:43.419Z</time></trkpt><trkpt lat="42.3953426" lon="13.3400744"><ele>753.0</ele><time>2026-04-09T11:47:45.418Z</time></trkpt><trkpt lat="42.3952495" lon="13.3400515"><ele>749.0</ele><time>2026-04-09T11:47:47.418Z</time></trkpt><trkpt lat="42.3951423" lon="13.3400253"><ele>745.0</ele><time>2026-04-09T11:47:49.417Z</time></trkpt><trkpt lat="42.3950284" lon="13.3400017"><ele>741.0</ele><time>2026-04-09T11:47:51.418Z</time></trkpt><trkpt lat="42.394907" lon="13.3399707"><ele>737.0</ele><time>2026-04-09T11:47:53.417Z</time></trkpt><trkpt lat="42.3948008" lon="13.3399693"><ele>737.0</ele><time>2026-04-09T11:47:55.418Z</time></trkpt><trkpt lat="42.3947134" lon="13.3399635"><ele>737.0</ele><time>2026-04-09T11:47:57.417Z</time></trkpt><trkpt lat="42.3946319" lon="13.3399412"><ele>737.0</ele><time>2026-04-09T11:47:59.418Z</time></trkpt><trkpt lat="42.3945346" lon="13.3399661"><ele>737.0</ele><time>2026-04-09T11:48:01.418Z</time></trkpt><trkpt lat="42.3944364" lon="13.3399993"><ele>737.0</ele><time>2026-04-09T11:48:03.418Z</time></trkpt><trkpt lat="42.3943438" lon="13.3400195"><ele>734.8333333333333</ele><time>2026-04-09T11:48:05.418Z</time></trkpt><trkpt lat="42.3942465" lon="13.3400436"><ele>732.6666666666666</ele><time>2026-04-09T11:48:07.417Z</time></trkpt><trkpt lat="42.3941474" lon="13.3401087"><ele>730.5</ele><time>2026-04-09T11:48:09.418Z</time></trkpt><trkpt lat="42.3940882" lon="13.3401508"><ele>728.3333333333334</ele><time>2026-04-09T11:48:10.419Z</time></trkpt><trkpt lat="42.3940133" lon="13.3401947"><ele>726.1666666666667</ele><time>2026-04-09T11:48:11.419Z</time></trkpt><trkpt lat="42.3939363" lon="13.3402247"><ele>724.0</ele><time>2026-04-09T11:48:12.417Z</time></trkpt><trkpt lat="42.3938735" lon="13.3402576"><ele>722.0</ele><time>2026-04-09T11:48:13.418Z</time></trkpt><trkpt lat="42.3938055" lon="13.3402879"><ele>720.0</ele><time>2026-04-09T11:48:14.418Z</time></trkpt><trkpt lat="42.3937441" lon="13.3403165"><ele>718.0</ele><time>2026-04-09T11:48:15.418Z</time></trkpt><trkpt lat="42.3936745" lon="13.3403461"><ele>716.0</ele><time>2026-04-09T11:48:16.418Z</time></trkpt><trkpt lat="42.393595" lon="13.3403902"><ele>714.0</ele><time>2026-04-09T11:48:17.418Z</time></trkpt><trkpt lat="42.3935269" lon="13.3404298"><ele>712.0</ele><time>2026-04-09T11:48:18.418Z</time></trkpt><trkpt lat="42.3934552" lon="13.3404782"><ele>712.0</ele><time>2026-04-09T11:48:19.417Z</time></trkpt><trkpt lat="42.3933815" lon="13.3405351"><ele>712.0</ele><time>2026-04-09T11:48:20.418Z</time></trkpt><trkpt lat="42.393311" lon="13.3405941"><ele>712.0</ele><time>2026-04-09T11:48:21.418Z</time></trkpt><trkpt lat="42.3932489" lon="13.3406657"><ele>712.0</ele><time>2026-04-09T11:48:22.417Z</time></trkpt><trkpt lat="42.3931793" lon="13.3407274"><ele>712.0</ele><time>2026-04-09T11:48:23.418Z</time></trkpt><trkpt lat="42.3931085" lon="13.3407924"><ele>712.0</ele><time>2026-04-09T11:48:24.419Z</time></trkpt><trkpt lat="42.3930395" lon="13.3408217"><ele>712.1666666666667</ele><time>2026-04-09T11:48:25.418Z</time></trkpt><trkpt lat="42.3929779" lon="13.3408607"><ele>712.3333333333334</ele><time>2026-04-09T11:48:26.418Z</time></trkpt><trkpt lat="42.3929035" lon="13.3408889"><ele>712.5</ele><time>2026-04-09T11:48:27.418Z</time></trkpt><trkpt lat="42.3927636" lon="13.3409532"><ele>712.6666666666666</ele><time>2026-04-09T11:48:29.418Z</time></trkpt><trkpt lat="42.3926974" lon="13.3409896"><ele>712.8333333333333</ele><time>2026-04-09T11:48:30.417Z</time></trkpt><trkpt lat="42.3926297" lon="13.3410339"><ele>713.0</ele><time>2026-04-09T11:48:31.417Z</time></trkpt><trkpt lat="42.392556" lon="13.3410613"><ele>713.0</ele><time>2026-04-09T11:48:32.418Z</time></trkpt><trkpt lat="42.3924823" lon="13.3410831"><ele>713.0</ele><time>2026-04-09T11:48:33.417Z</time></trkpt><trkpt lat="42.3924065" lon="13.3411108"><ele>713.0</ele><time>2026-04-09T11:48:34.418Z</time></trkpt><trkpt lat="42.392334" lon="13.3411381"><ele>713.0</ele><time>2026-04-09T11:48:35.418Z</time></trkpt><trkpt lat="42.3922682" lon="13.3411675"><ele>713.0</ele><time>2026-04-09T11:48:36.417Z</time></trkpt><trkpt lat="42.3922035" lon="13.3411893"><ele>713.0</ele><time>2026-04-09T11:48:37.417Z</time></trkpt><trkpt lat="42.3920812" lon="13.3412095"><ele>710.2</ele><time>2026-04-09T11:48:39.418Z</time></trkpt><trkpt lat="42.3919615" lon="13.3412166"><ele>707.4</ele><time>2026-04-09T11:48:41.418Z</time></trkpt><trkpt lat="42.3918518" lon="13.3412417"><ele>704.6</ele><time>2026-04-09T11:48:43.418Z</time></trkpt><trkpt lat="42.3917661" lon="13.3412929"><ele>701.8000000000001</ele><time>2026-04-09T11:48:45.418Z</time></trkpt><trkpt lat="42.3917026" lon="13.3413368"><ele>699.0</ele><time>2026-04-09T11:48:47.418Z</time></trkpt><trkpt lat="42.3916399" lon="13.341365"><ele>699.0</ele><time>2026-04-09T11:48:49.418Z</time></trkpt><trkpt lat="42.3915693" lon="13.3413728"><ele>699.0</ele><time>2026-04-09T11:48:51.417Z</time></trkpt><trkpt lat="42.3914959" lon="13.3413681"><ele>699.0</ele><time>2026-04-09T11:48:53.417Z</time></trkpt><trkpt lat="42.3914238" lon="13.3413795"><ele>699.0</ele><time>2026-04-09T11:48:55.417Z</time></trkpt><trkpt lat="42.3913461" lon="13.3414133"><ele>699.0</ele><time>2026-04-09T11:48:57.417Z</time></trkpt><trkpt lat="42.3912645" lon="13.34146"><ele>699.0</ele><time>2026-04-09T11:48:59.417Z</time></trkpt><trkpt lat="42.3911665" lon="13.3415131"><ele>697.6</ele><time>2026-04-09T11:49:01.417Z</time></trkpt><trkpt lat="42.3910649" lon="13.3415864"><ele>696.2</ele><time>2026-04-09T11:49:03.417Z</time></trkpt><trkpt lat="42.3909827" lon="13.3416546"><ele>694.8000000000001</ele><time>2026-04-09T11:49:05.416Z</time></trkpt><trkpt lat="42.3909056" lon="13.3417025"><ele>693.4000000000001</ele><time>2026-04-09T11:49:07.417Z</time></trkpt><trkpt lat="42.3908305" lon="13.3417512"><ele>692.0</ele><time>2026-04-09T11:49:09.417Z</time></trkpt><trkpt lat="42.3907517" lon="13.3417819"><ele>692.0</ele><time>2026-04-09T11:49:11.416Z</time></trkpt><trkpt lat="42.3906671" lon="13.3418199"><ele>692.0</ele><time>2026-04-09T11:49:13.417Z</time></trkpt><trkpt lat="42.3905449" lon="13.3418401"><ele>692.0</ele><time>2026-04-09T11:49:15.417Z</time></trkpt><trkpt lat="42.3904801" lon="13.3418379"><ele>692.0</ele><time>2026-04-09T11:49:16.417Z</time></trkpt><trkpt lat="42.3903545" lon="13.3418347"><ele>692.0</ele><time>2026-04-09T11:49:18.417Z</time></trkpt><trkpt lat="42.3902885" lon="13.3418247"><ele>690.6</ele><time>2026-04-09T11:49:19.417Z</time></trkpt><trkpt lat="42.3901769" lon="13.3418256"><ele>689.2</ele><time>2026-04-09T11:49:21.418Z</time></trkpt><trkpt lat="42.3900801" lon="13.341847"><ele>687.8</ele><time>2026-04-09T11:49:23.417Z</time></trkpt><trkpt lat="42.3899517" lon="13.3419139"><ele>686.4</ele><time>2026-04-09T11:49:25.417Z</time></trkpt><trkpt lat="42.3898603" lon="13.3419694"><ele>685.0</ele><time>2026-04-09T11:49:26.417Z</time></trkpt><trkpt lat="42.3897631" lon="13.3420112"><ele>683.75</ele><time>2026-04-09T11:49:27.417Z</time></trkpt><trkpt lat="42.3896498" lon="13.342106"><ele>682.5</ele><time>2026-04-09T11:49:28.418Z</time></trkpt><trkpt lat="42.3895359" lon="13.3421751"><ele>681.25</ele><time>2026-04-09T11:49:29.417Z</time></trkpt><trkpt lat="42.3894303" lon="13.3422435"><ele>680.0</ele><time>2026-04-09T11:49:30.417Z</time></trkpt><trkpt lat="42.389334" lon="13.3423064"><ele>680.0</ele><time>2026-04-09T11:49:31.417Z</time></trkpt><trkpt lat="42.3892387" lon="13.3423559"><ele>680.0</ele><time>2026-04-09T11:49:32.417Z</time></trkpt><trkpt lat="42.3891394" lon="13.3423987"><ele>680.0</ele><time>2026-04-09T11:49:33.417Z</time></trkpt><trkpt lat="42.3890502" lon="13.3424347"><ele>680.0</ele><time>2026-04-09T11:49:34.417Z</time></trkpt><trkpt lat="42.3889708" lon="13.3424618"><ele>680.0</ele><time>2026-04-09T11:49:35.416Z</time></trkpt><trkpt lat="42.3888823" lon="13.3424895"><ele>679.8</ele><time>2026-04-09T11:49:36.417Z</time></trkpt><trkpt lat="42.3887962" lon="13.3424943"><ele>679.6</ele><time>2026-04-09T11:49:37.417Z</time></trkpt><trkpt lat="42.3887079" lon="13.3424999"><ele>679.4000000000001</ele><time>2026-04-09T11:49:38.417Z</time></trkpt><trkpt lat="42.3886149" lon="13.3425239"><ele>679.2</ele><time>2026-04-09T11:49:39.417Z</time></trkpt><trkpt lat="42.3885115" lon="13.3425229"><ele>679.0</ele><time>2026-04-09T11:49:40.417Z</time></trkpt><trkpt lat="42.3884048" lon="13.3425111"><ele>679.0</ele><time>2026-04-09T11:49:41.418Z</time></trkpt><trkpt lat="42.3883121" lon="13.3425006"><ele>679.0</ele><time>2026-04-09T11:49:42.417Z</time></trkpt><trkpt lat="42.388201" lon="13.3425046"><ele>679.0</ele><time>2026-04-09T11:49:43.417Z</time></trkpt><trkpt lat="42.3881066" lon="13.3425261"><ele>679.0</ele><time>2026-04-09T11:49:44.417Z</time></trkpt><trkpt lat="42.3880139" lon="13.3425182"><ele>679.0</ele><time>2026-04-09T11:49:45.417Z</time></trkpt><trkpt lat="42.387913" lon="13.3425366"><ele>678.0</ele><time>2026-04-09T11:49:46.417Z</time></trkpt><trkpt lat="42.3878191" lon="13.3425703"><ele>677.0</ele><time>2026-04-09T11:49:47.416Z</time></trkpt><trkpt lat="42.3877253" lon="13.3425957"><ele>676.0</ele><time>2026-04-09T11:49:48.416Z</time></trkpt><trkpt lat="42.3876406" lon="13.342623"><ele>675.0</ele><time>2026-04-09T11:49:49.417Z</time></trkpt><trkpt lat="42.3875442" lon="13.3426661"><ele>674.0</ele><time>2026-04-09T11:49:50.417Z</time></trkpt><trkpt lat="42.3873993" lon="13.3427035"><ele>674.0</ele><time>2026-04-09T11:49:52.416Z</time></trkpt><trkpt lat="42.3872985" lon="13.3427511"><ele>674.0</ele><time>2026-04-09T11:49:53.417Z</time></trkpt><trkpt lat="42.3871949" lon="13.3428162"><ele>674.0</ele><time>2026-04-09T11:49:54.417Z</time></trkpt><trkpt lat="42.3870825" lon="13.3429046"><ele>674.0</ele><time>2026-04-09T11:49:55.417Z</time></trkpt><trkpt lat="42.3869798" lon="13.3429955"><ele>674.5</ele><time>2026-04-09T11:49:56.417Z</time></trkpt><trkpt lat="42.3868786" lon="13.3430846"><ele>675.0</ele><time>2026-04-09T11:49:57.417Z</time></trkpt><trkpt lat="42.3867637" lon="13.3431819"><ele>675.5</ele><time>2026-04-09T11:49:58.417Z</time></trkpt><trkpt lat="42.3866504" lon="13.3432963"><ele>676.0</ele><time>2026-04-09T11:49:59.416Z</time></trkpt><trkpt lat="42.3865424" lon="13.3434205"><ele>676.0</ele><time>2026-04-09T11:50:00.417Z</time></trkpt></trkseg></trk></gpx>